Wetterdaten: Samstag, 10.05.2014
Datum Zeit Temp. Aussen +5cm Feuchte Auss Luftdruck Regen Sonnenschein Regendauer UV Solar Windben
10.05.2014 00:00 9,3 C 8,3 C 97 % 1014,5 hPa 0,0 l/m 0 min 2 min 0,0 UV-I 0 W/m 7,7 km/h (2 Bft)
10.05.2014 00:02 9,3 C 8,3 C 97 % 1014,5 hPa 0,0 l/m 0 min 2 min 0,0 UV-I 0 W/m 5,1 km/h (1 Bft)
10.05.2014 00:05 9,3 C 8,3 C 97 % 1014,7 hPa 0,2 l/m 0 min 0 min 0,0 UV-I 0 W/m 5,1 km/h (1 Bft)
10.05.2014 00:06 9,3 C 8,3 C 97 % 1014,7 hPa 0,0 l/m 0 min 0 min 0,0 UV-I 0 W/m 5,1 km/h (1 Bft)
10.05.2014 00:08 9,3 C 8,3 C 97 % 1014,6 hPa 0,2 l/m 0 min 2 min 0,0 UV-I 0 W/m 12,9 km/h (3 Bft)
10.05.2014 00:10 9,2 C 8,3 C 97 % 1014,5 hPa 0,0 l/m 0 min 2 min 0,0 UV-I 0 W/m 10,3 km/h (2 Bft)
10.05.2014 00:12 9,3 C 8,3 C 97 % 1014,4 hPa 0,0 l/m 0 min 2 min 0,0 UV-I 0 W/m 12,9 km/h (3 Bft)
10.05.2014 00:14 9,3 C 8,3 C 97 % 1014,4 hPa 0,0 l/m 0 min 2 min 0,0 UV-I 0 W/m 10,3 km/h (2 Bft)
10.05.2014 00:16 9,3 C 8,3 C 97 % 1014,5 hPa 0,2 l/m 0 min 2 min 0,0 UV-I 0 W/m 7,7 km/h (2 Bft)
10.05.2014 00:18 9,3 C 8,3 C 97 % 1014,5 hPa 0,0 l/m 0 min 0 min 0,0 UV-I 0 W/m 0,0 km/h (0 Bft)
10.05.2014 00:20 9,3 C 8,3 C 97 % 1014,5 hPa 0,2 l/m 0 min 0 min 0,0 UV-I 0 W/m 10,3 km/h (2 Bft)
10.05.2014 00:22 9,3 C 8,3 C 97 % 1014,5 hPa 0,0 l/m 0 min 0 min 0,0 UV-I 0 W/m 7,7 km/h (2 Bft)
10.05.2014 00:24 9,3 C 8,3 C 97 % 1014,5 hPa 0,0 l/m 0 min 0 min 0,0 UV-I 0 W/m 5,1 km/h (1 Bft)
10.05.2014 00:26 9,3 C 7,8 C 97 % 1014,5 hPa 0,0 l/m 0 min 0 min 0,0 UV-I 0 W/m 2,6 km/h (1 Bft)
10.05.2014 00:28 9,3 C 7,8 C 97 % 1014,4 hPa 0,2 l/m 0 min 0 min 0,0 UV-I 0 W/m 7,7 km/h (2 Bft)
10.05.2014 00:30 9,3 C 7,8 C 97 % 1014,5 hPa 0,0 l/m 0 min 0 min 0,0 UV-I 0 W/m 0,0 km/h (0 Bft)
10.05.2014 00:32 9,3 C 7,8 C 97 % 1014,5 hPa 0,2 l/m 0 min 0 min 0,0 UV-I 0 W/m 0,0 km/h (0 Bft)
10.05.2014 00:34 9,2 C 7,8 C 97 % 1014,5 hPa 0,0 l/m 0 min 0 min 0,0 UV-I 0 W/m 0,0 km/h (0 Bft)
10.05.2014 00:36 9,2 C 7,8 C 97 % 1014,6 hPa 0,0 l/m 0 min 0 min 0,0 UV-I 0 W/m 0,0 km/h (0 Bft)
10.05.2014 00:38 9,2 C 7,8 C 97 % 1014,6 hPa 0,0 l/m 0 min 0 min 0,0 UV-I 0 W/m 0,0 km/h (0 Bft)
10.05.2014 00:40 9,1 C 7,8 C 97 % 1014,6 hPa 0,2 l/m 0 min 0 min 0,0 UV-I 0 W/m 0,0 km/h (0 Bft)
10.05.2014 00:42 9,1 C 7,8 C 97 % 1014,7 hPa 0,0 l/m 0 min 0 min 0,0 UV-I 0 W/m 0,0 km/h (0 Bft)
10.05.2014 00:44 9,0 C 7,2 C 97 % 1014,6 hPa 0,2 l/m 0 min 0 min 0,0 UV-I 0 W/m 0,0 km/h (0 Bft)
10.05.2014 00:46 9,0 C 7,2 C 97 % 1014,6 hPa 0,0 l/m 0 min 0 min 0,0 UV-I 0 W/m 5,1 km/h (1 Bft)
10.05.2014 00:48 9,0 C 7,2 C 97 % 1014,6 hPa 0,0 l/m 0 min 0 min 0,0 UV-I 0 W/m 0,0 km/h (0 Bft)
10.05.2014 00:50 8,9 C 7,2 C 97 % 1014,6 hPa 0,0 l/m 0 min 0 min 0,0 UV-I 0 W/m 2,6 km/h (1 Bft)
10.05.2014 00:52 8,9 C 7,2 C 97 % 1014,6 hPa 0,0 l/m 0 min 0 min 0,0 UV-I 0 W/m 5,1 km/h (1 Bft)
10.05.2014 00:54 8,9 C 7,2 C 97 % 1014,6 hPa 0,2 l/m 0 min 0 min 0,0 UV-I 0 W/m 0,0 km/h (0 Bft)
10.05.2014 00:56 8,9 C 7,2 C 97 % 1014,6 hPa 0,0 l/m 0 min 0 min 0,0 UV-I 0 W/m 0,0 km/h (0 Bft)
10.05.2014 00:58 8,9 C 7,2 C 97 % 1014,5 hPa 0,2 l/m 0 min 0 min 0,0 UV-I 0 W/m 0,0 km/h (0 Bft)
10.05.2014 01:00 8,8 C 7,2 C 97 % 1014,6 hPa 0,0 l/m 0 min 0 min 0,0 UV-I 0 W/m 0,0 km/h (0 Bft)
10.05.2014 01:02 8,8 C 7,2 C 97 % 1014,6 hPa 0,0 l/m 0 min 0 min 0,0 UV-I 0 W/m 2,6 km/h (1 Bft)
10.05.2014 01:06 8,8 C 7,2 C 97 % 1014,5 hPa 0,0 l/m 0 min 0 min 0,0 UV-I 0 W/m 5,1 km/h (1 Bft)
10.05.2014 01:08 8,8 C 7,2 C 97 % 1014,5 hPa 0,2 l/m 0 min 0 min 0,0 UV-I 0 W/m 0,0 km/h (0 Bft)
10.05.2014 01:10 8,8 C 7,2 C 97 % 1014,5 hPa 0,0 l/m 0 min 0 min 0,0 UV-I 0 W/m 2,6 km/h (1 Bft)
10.05.2014 01:12 8,8 C 7,2 C 97 % 1014,5 hPa 0,2 l/m 0 min 2 min 0,0 UV-I 0 W/m 0,0 km/h (0 Bft)
10.05.2014 01:14 8,8 C 7,2 C 97 % 1014,5 hPa 0,0 l/m 0 min 0 min 0,0 UV-I 0 W/m 12,9 km/h (3 Bft)
10.05.2014 01:16 8,8 C 7,2 C 97 % 1014,5 hPa 0,0 l/m 0 min 0 min 0,0 UV-I 0 W/m 5,1 km/h (1 Bft)
10.05.2014 01:18 8,7 C 7,2 C 97 % 1014,5 hPa 0,0 l/m 0 min 0 min 0,0 UV-I 0 W/m 0,0 km/h (0 Bft)
10.05.2014 01:20 8,7 C 7,2 C 97 % 1014,6 hPa 0,0 l/m 0 min 0 min 0,0 UV-I 0 W/m 0,0 km/h (0 Bft)
10.05.2014 01:22 8,7 C 7,2 C 97 % 1014,5 hPa 0,0 l/m 0 min 0 min 0,0 UV-I 0 W/m 0,0 km/h (0 Bft)
10.05.2014 01:24 8,7 C 7,2 C 97 % 1014,6 hPa 0,2 l/m 0 min 0 min 0,0 UV-I 0 W/m 0,0 km/h (0 Bft)
10.05.2014 01:26 8,7 C 7,2 C 97 % 1014,5 hPa 0,0 l/m 0 min 0 min 0,0 UV-I 0 W/m 0,0 km/h (0 Bft)
10.05.2014 01:28 8,7 C 7,2 C 97 % 1014,6 hPa 0,0 l/m 0 min 0 min 0,0 UV-I 0 W/m 0,0 km/h (0 Bft)
10.05.2014 01:30 8,7 C 7,2 C 97 % 1014,6 hPa 0,2 l/m 0 min 0 min 0,0 UV-I 0 W/m 2,6 km/h (1 Bft)
10.05.2014 01:32 8,6 C 7,2 C 97 % 1014,6 hPa 0,0 l/m 0 min 0 min 0,0 UV-I 0 W/m 0,0 km/h (0 Bft)
10.05.2014 01:34 8,6 C 7,2 C 97 % 1014,5 hPa 0,0 l/m 0 min 0 min 0,0 UV-I 0 W/m 0,0 km/h (0 Bft)
10.05.2014 01:36 8,6 C 7,2 C 97 % 1014,5 hPa 0,0 l/m 0 min 0 min 0,0 UV-I 0 W/m 0,0 km/h (0 Bft)
10.05.2014 01:38 8,6 C 7,2 C 97 % 1014,5 hPa 0,0 l/m 0 min 0 min 0,0 UV-I 0 W/m 0,0 km/h (0 Bft)
10.05.2014 01:40 8,6 C 7,2 C 97 % 1014,5 hPa 0,0 l/m 0 min 0 min 0,0 UV-I 0 W/m 0,0 km/h (0 Bft)
10.05.2014 01:42 8,6 C 7,2 C 97 % 1014,5 hPa 0,0 l/m 0 min 0 min 0,0 UV-I 0 W/m 0,0 km/h (0 Bft)
10.05.2014 01:44 8,6 C 6,7 C 97 % 1014,5 hPa 0,0 l/m 0 min 0 min 0,0 UV-I 0 W/m 0,0 km/h (0 Bft)
10.05.2014 01:46 8,5 C 7,2 C 96 % 1014,5 hPa 0,0 l/m 0 min 0 min 0,0 UV-I 0 W/m 5,1 km/h (1 Bft)
10.05.2014 01:48 8,6 C 7,2 C 96 % 1014,5 hPa 0,0 l/m 0 min 0 min 0,0 UV-I 0 W/m 2,6 km/h (1 Bft)
10.05.2014 01:50 8,6 C 7,2 C 97 % 1014,5 hPa 0,0 l/m 0 min 0 min 0,0 UV-I 0 W/m 0,0 km/h (0 Bft)
10.05.2014 01:52 8,6 C 7,2 C 97 % 1014,5 hPa 0,0 l/m 0 min 0 min 0,0 UV-I 0 W/m 0,0 km/h (0 Bft)
10.05.2014 01:54 8,6 C 7,2 C 97 % 1014,4 hPa 0,0 l/m 0 min 0 min 0,0 UV-I 0 W/m 0,0 km/h (0 Bft)
10.05.2014 01:56 8,6 C 7,2 C 96 % 1014,5 hPa 0,0 l/m 0 min 0 min 0,0 UV-I 0 W/m 5,1 km/h (1 Bft)
10.05.2014 01:58 8,6 C 7,2 C 96 % 1014,5 hPa 0,0 l/m 0 min 0 min 0,0 UV-I 0 W/m 5,1 km/h (1 Bft)
10.05.2014 02:00 8,6 C 7,2 C 96 % 1014,5 hPa 0,0 l/m 0 min 0 min 0,0 UV-I 0 W/m 0,0 km/h (0 Bft)
10.05.2014 02:02 8,5 C 7,2 C 96 % 1014,4 hPa 0,0 l/m 0 min 0 min 0,0 UV-I 0 W/m 0,0 km/h (0 Bft)
10.05.2014 02:06 8,4 C 6,7 C 96 % 1014,4 hPa 0,0 l/m 0 min 0 min 0,0 UV-I 0 W/m 0,0 km/h (0 Bft)
10.05.2014 02:08 8,4 C 6,7 C 96 % 1014,4 hPa 0,0 l/m 0 min 0 min 0,0 UV-I 0 W/m 0,0 km/h (0 Bft)
10.05.2014 02:10 8,4 C 6,7 C 96 % 1014,4 hPa 0,0 l/m 0 min 0 min 0,0 UV-I 0 W/m 0,0 km/h (0 Bft)
10.05.2014 02:12 8,4 C 6,7 C 96 % 1014,4 hPa 0,0 l/m 0 min 0 min 0,0 UV-I 0 W/m 5,1 km/h (1 Bft)
10.05.2014 02:14 8,4 C 6,7 C 96 % 1014,4 hPa 0,0 l/m 0 min 0 min 0,0 UV-I 0 W/m 0,0 km/h (0 Bft)
10.05.2014 02:16 8,4 C 6,7 C 96 % 1014,4 hPa 0,0 l/m 0 min 0 min 0,0 UV-I 0 W/m 0,0 km/h (0 Bft)
10.05.2014 02:18 8,4 C 6,7 C 96 % 1014,2 hPa 0,0 l/m 0 min 0 min 0,0 UV-I 0 W/m 0,0 km/h (0 Bft)
10.05.2014 02:20 8,3 C 6,7 C 96 % 1014,3 hPa 0,0 l/m 0 min 0 min 0,0 UV-I 0 W/m 7,7 km/h (2 Bft)
10.05.2014 02:22 8,3 C 6,7 C 96 % 1014,3 hPa 0,0 l/m 0 min 0 min 0,0 UV-I 0 W/m 0,0 km/h (0 Bft)
10.05.2014 02:24 8,3 C 6,7 C 96 % 1014,3 hPa 0,0 l/m 0 min 0 min 0,0 UV-I 0 W/m 0,0 km/h (0 Bft)
10.05.2014 02:26 8,3 C 6,7 C 96 % 1014,2 hPa 0,0 l/m 0 min 0 min 0,0 UV-I 0 W/m 0,0 km/h (0 Bft)
10.05.2014 02:28 8,3 C 6,7 C 96 % 1014,3 hPa 0,0 l/m 0 min 0 min 0,0 UV-I 0 W/m 0,0 km/h (0 Bft)
10.05.2014 02:30 8,3 C 6,7 C 96 % 1014,3 hPa 0,0 l/m 0 min 0 min 0,0 UV-I 0 W/m 2,6 km/h (1 Bft)
10.05.2014 02:32 8,2 C 6,7 C 96 % 1014,3 hPa 0,0 l/m 0 min 0 min 0,0 UV-I 0 W/m 0,0 km/h (0 Bft)
10.05.2014 02:34 8,3 C 6,7 C 96 % 1014,3 hPa 0,0 l/m 0 min 0 min 0,0 UV-I 0 W/m 0,0 km/h (0 Bft)
10.05.2014 02:36 8,3 C 6,7 C 96 % 1014,3 hPa 0,0 l/m 0 min 0 min 0,0 UV-I 0 W/m 0,0 km/h (0 Bft)
10.05.2014 02:38 8,3 C 6,7 C 96 % 1014,3 hPa 0,0 l/m 0 min 0 min 0,0 UV-I 0 W/m 0,0 km/h (0 Bft)
10.05.2014 02:40 8,3 C 6,7 C 96 % 1014,4 hPa 0,0 l/m 0 min 0 min 0,0 UV-I 0 W/m 2,6 km/h (1 Bft)
10.05.2014 02:42 8,2 C 6,7 C 96 % 1014,4 hPa 0,0 l/m 0 min 0 min 0,0 UV-I 0 W/m 0,0 km/h (0 Bft)
10.05.2014 02:44 8,3 C 6,7 C 96 % 1014,4 hPa 0,0 l/m 0 min 0 min 0,0 UV-I 0 W/m 7,7 km/h (2 Bft)
10.05.2014 02:46 8,3 C 6,7 C 96 % 1014,3 hPa 0,0 l/m 0 min 0 min 0,0 UV-I 0 W/m 2,6 km/h (1 Bft)
10.05.2014 02:48 8,3 C 6,7 C 96 % 1014,3 hPa 0,0 l/m 0 min 0 min 0,0 UV-I 0 W/m 5,1 km/h (1 Bft)
10.05.2014 02:50 8,3 C 6,7 C 96 % 1014,3 hPa 0,0 l/m 0 min 0 min 0,0 UV-I 0 W/m 0,0 km/h (0 Bft)
10.05.2014 02:52 8,3 C 6,7 C 96 % 1014,3 hPa 0,0 l/m 0 min 0 min 0,0 UV-I 0 W/m 0,0 km/h (0 Bft)
10.05.2014 02:54 8,3 C 6,7 C 96 % 1014,2 hPa 0,0 l/m 0 min 0 min 0,0 UV-I 0 W/m 0,0 km/h (0 Bft)
10.05.2014 02:56 8,3 C 6,7 C 96 % 1014,2 hPa 0,0 l/m 0 min 2 min 0,0 UV-I 0 W/m 10,3 km/h (2 Bft)
10.05.2014 02:58 8,3 C 6,7 C 96 % 1014,3 hPa 0,0 l/m 0 min 0 min 0,0 UV-I 0 W/m 2,6 km/h (1 Bft)
10.05.2014 03:00 8,3 C 6,7 C 96 % 1014,2 hPa 0,0 l/m 0 min 0 min 0,0 UV-I 0 W/m 0,0 km/h (0 Bft)
10.05.2014 03:02 8,3 C 6,7 C 96 % 1014,2 hPa 0,0 l/m 0 min 0 min 0,0 UV-I 0 W/m 0,0 km/h (0 Bft)
10.05.2014 03:06 8,3 C 6,7 C 96 % 1014,3 hPa 0,0 l/m 0 min 0 min 0,0 UV-I 0 W/m 0,0 km/h (0 Bft)
10.05.2014 03:08 8,2 C 6,7 C 96 % 1014,2 hPa 0,0 l/m 0 min 0 min 0,0 UV-I 0 W/m 10,3 km/h (2 Bft)
10.05.2014 03:10 8,2 C 6,7 C 96 % 1014,1 hPa 0,0 l/m 0 min 0 min 0,0 UV-I 0 W/m 5,1 km/h (1 Bft)
10.05.2014 03:12 8,3 C 6,7 C 96 % 1014,1 hPa 0,0 l/m 0 min 0 min 0,0 UV-I 0 W/m 2,6 km/h (1 Bft)
10.05.2014 03:14 8,2 C 6,7 C 96 % 1014,1 hPa 0,0 l/m 0 min 0 min 0,0 UV-I 0 W/m 0,0 km/h (0 Bft)
10.05.2014 03:16 8,2 C 6,7 C 96 % 1014,1 hPa 0,0 l/m 0 min 0 min 0,0 UV-I 0 W/m 0,0 km/h (0 Bft)
10.05.2014 03:18 8,2 C 6,7 C 96 % 1014,1 hPa 0,0 l/m 0 min 0 min 0,0 UV-I 0 W/m 0,0 km/h (0 Bft)
10.05.2014 03:20 8,2 C 6,7 C 95 % 1014,2 hPa 0,0 l/m 0 min 0 min 0,0 UV-I 0 W/m 5,1 km/h (1 Bft)
10.05.2014 03:22 8,2 C 6,7 C 95 % 1014,1 hPa 0,0 l/m 0 min 0 min 0,0 UV-I 0 W/m 0,0 km/h (0 Bft)
10.05.2014 03:24 8,2 C 6,7 C 95 % 1014,2 hPa 0,0 l/m 0 min 0 min 0,0 UV-I 0 W/m 0,0 km/h (0 Bft)
10.05.2014 03:26 8,2 C 6,7 C 95 % 1014,1 hPa 0,0 l/m 0 min 0 min 0,0 UV-I 0 W/m 0,0 km/h (0 Bft)
10.05.2014 03:28 8,1 C 6,7 C 95 % 1014,2 hPa 0,0 l/m 0 min 0 min 0,0 UV-I 0 W/m 10,3 km/h (2 Bft)
10.05.2014 03:30 8,1 C 6,7 C 96 % 1014,3 hPa 0,0 l/m 0 min 0 min 0,0 UV-I 0 W/m 2,6 km/h (1 Bft)
10.05.2014 03:32 8,1 C 6,7 C 96 % 1014,3 hPa 0,0 l/m 0 min 0 min 0,0 UV-I 0 W/m 0,0 km/h (0 Bft)
10.05.2014 03:34 8,1 C 6,7 C 96 % 1014,3 hPa 0,0 l/m 0 min 0 min 0,0 UV-I 0 W/m 0,0 km/h (0 Bft)
10.05.2014 03:36 8,1 C 6,7 C 96 % 1014,3 hPa 0,0 l/m 0 min 0 min 0,0 UV-I 0 W/m 0,0 km/h (0 Bft)
10.05.2014 03:38 8,1 C 6,7 C 96 % 1014,3 hPa 0,0 l/m 0 min 0 min 0,0 UV-I 0 W/m 0,0 km/h (0 Bft)
10.05.2014 03:40 8,1 C 6,7 C 96 % 1014,4 hPa 0,0 l/m 0 min 0 min 0,0 UV-I 0 W/m 0,0 km/h (0 Bft)
10.05.2014 03:42 8,1 C 6,7 C 96 % 1014,4 hPa 0,0 l/m 0 min 0 min 0,0 UV-I 0 W/m 0,0 km/h (0 Bft)
10.05.2014 03:44 8,0 C 6,7 C 96 % 1014,3 hPa 0,0 l/m 0 min 0 min 0,0 UV-I 0 W/m 0,0 km/h (0 Bft)
10.05.2014 03:46 8,0 C 6,7 C 96 % 1014,4 hPa 0,0 l/m 0 min 0 min 0,0 UV-I 0 W/m 5,1 km/h (1 Bft)
10.05.2014 03:48 8,0 C 6,7 C 96 % 1014,3 hPa 0,0 l/m 0 min 0 min 0,0 UV-I 0 W/m 5,1 km/h (1 Bft)
10.05.2014 03:50 8,0 C 6,7 C 96 % 1014,3 hPa 0,0 l/m 0 min 0 min 0,0 UV-I 0 W/m 0,0 km/h (0 Bft)
10.05.2014 03:52 8,0 C 6,7 C 96 % 1014,3 hPa 0,0 l/m 0 min 0 min 0,0 UV-I 0 W/m 0,0 km/h (0 Bft)
10.05.2014 03:54 7,9 C 6,7 C 96 % 1014,3 hPa 0,0 l/m 0 min 0 min 0,0 UV-I 0 W/m 0,0 km/h (0 Bft)
10.05.2014 03:56 7,9 C 6,7 C 96 % 1014,3 hPa 0,0 l/m 0 min 0 min 0,0 UV-I 0 W/m 2,6 km/h (1 Bft)
10.05.2014 03:58 7,9 C 6,7 C 96 % 1014,3 hPa 0,0 l/m 0 min 0 min 0,0 UV-I 0 W/m 5,1 km/h (1 Bft)
10.05.2014 04:00 8,0 C 6,7 C 95 % 1014,3 hPa 0,0 l/m 0 min 0 min 0,0 UV-I 0 W/m 2,6 km/h (1 Bft)
10.05.2014 04:02 8,0 C 6,7 C 96 % 1014,2 hPa 0,0 l/m 0 min 0 min 0,0 UV-I 0 W/m 0,0 km/h (0 Bft)
10.05.2014 04:06 8,0 C 6,7 C 96 % 1014,2 hPa 0,0 l/m 0 min 0 min 0,0 UV-I 0 W/m 2,6 km/h (1 Bft)
10.05.2014 04:08 8,0 C 6,7 C 96 % 1014,2 hPa 0,0 l/m 0 min 0 min 0,0 UV-I 0 W/m 0,0 km/h (0 Bft)
10.05.2014 04:10 8,0 C 6,7 C 96 % 1014,2 hPa 0,0 l/m 0 min 0 min 0,0 UV-I 0 W/m 0,0 km/h (0 Bft)
10.05.2014 04:12 8,0 C 6,7 C 96 % 1014,2 hPa 0,0 l/m 0 min 0 min 0,0 UV-I 0 W/m 2,6 km/h (1 Bft)
10.05.2014 04:14 8,0 C 6,7 C 96 % 1014,2 hPa 0,2 l/m 0 min 0 min 0,0 UV-I 0 W/m 0,0 km/h (0 Bft)
10.05.2014 04:16 7,9 C 6,7 C 96 % 1014,2 hPa 0,0 l/m 0 min 0 min 0,0 UV-I 0 W/m 0,0 km/h (0 Bft)
10.05.2014 04:18 7,9 C 6,7 C 96 % 1014,1 hPa 0,0 l/m 0 min 0 min 0,0 UV-I 0 W/m 2,6 km/h (1 Bft)
10.05.2014 04:20 7,9 C 6,7 C 96 % 1014,1 hPa 0,0 l/m 0 min 0 min 0,0 UV-I 0 W/m 0,0 km/h (0 Bft)
10.05.2014 04:22 7,9 C 6,7 C 96 % 1014,1 hPa 0,0 l/m 0 min 0 min 0,0 UV-I 0 W/m 2,6 km/h (1 Bft)
10.05.2014 04:24 7,9 C 6,7 C 96 % 1014,2 hPa 0,0 l/m 0 min 0 min 0,0 UV-I 0 W/m 10,3 km/h (2 Bft)
10.05.2014 04:26 8,0 C 6,7 C 96 % 1014,2 hPa 0,0 l/m 0 min 0 min 0,0 UV-I 0 W/m 5,1 km/h (1 Bft)
10.05.2014 04:28 8,0 C 6,7 C 96 % 1014,1 hPa 0,0 l/m 0 min 0 min 0,0 UV-I 0 W/m 7,7 km/h (2 Bft)
10.05.2014 04:30 8,0 C 6,7 C 96 % 1014,0 hPa 0,0 l/m 0 min 0 min 0,0 UV-I 0 W/m 2,6 km/h (1 Bft)
10.05.2014 04:32 8,0 C 6,7 C 96 % 1014,0 hPa 0,0 l/m 0 min 0 min 0,0 UV-I 0 W/m 0,0 km/h (0 Bft)
10.05.2014 04:34 8,1 C 6,7 C 96 % 1014,0 hPa 0,0 l/m 0 min 0 min 0,0 UV-I 0 W/m 5,1 km/h (1 Bft)
10.05.2014 04:36 8,1 C 6,7 C 96 % 1014,0 hPa 0,0 l/m 0 min 0 min 0,0 UV-I 0 W/m 10,3 km/h (2 Bft)
10.05.2014 04:38 8,1 C 6,7 C 96 % 1013,9 hPa 0,0 l/m 0 min 0 min 0,0 UV-I 0 W/m 12,9 km/h (3 Bft)
10.05.2014 04:40 8,1 C 6,7 C 96 % 1013,9 hPa 0,0 l/m 0 min 0 min 0,0 UV-I 0 W/m 15,4 km/h (3 Bft)
10.05.2014 04:42 8,1 C 6,7 C 96 % 1013,9 hPa 0,0 l/m 0 min 0 min 0,0 UV-I 0 W/m 2,6 km/h (1 Bft)
10.05.2014 04:44 8,2 C 6,7 C 96 % 1013,9 hPa 0,0 l/m 0 min 0 min 0,0 UV-I 0 W/m 7,7 km/h (2 Bft)
10.05.2014 04:46 8,2 C 6,7 C 96 % 1013,8 hPa 0,0 l/m 0 min 0 min 0,0 UV-I 0 W/m 5,1 km/h (1 Bft)
10.05.2014 04:48 8,2 C 6,7 C 96 % 1013,8 hPa 0,0 l/m 0 min 0 min 0,0 UV-I 0 W/m 12,9 km/h (3 Bft)
10.05.2014 04:50 8,2 C 6,7 C 96 % 1013,7 hPa 0,0 l/m 0 min 0 min 0,0 UV-I 0 W/m 5,1 km/h (1 Bft)
10.05.2014 04:52 8,2 C 6,7 C 96 % 1013,8 hPa 0,0 l/m 0 min 0 min 0,0 UV-I 0 W/m 5,1 km/h (1 Bft)
10.05.2014 04:54 8,2 C 6,7 C 95 % 1013,8 hPa 0,0 l/m 0 min 0 min 0,0 UV-I 0 W/m 10,3 km/h (2 Bft)
10.05.2014 04:56 8,2 C 6,7 C 95 % 1013,8 hPa 0,0 l/m 0 min 0 min 0,0 UV-I 0 W/m 5,1 km/h (1 Bft)
10.05.2014 04:58 8,3 C 6,7 C 95 % 1013,8 hPa 0,0 l/m 0 min 0 min 0,0 UV-I 0 W/m 10,3 km/h (2 Bft)
10.05.2014 05:00 8,3 C 6,7 C 95 % 1013,7 hPa 0,0 l/m 0 min 0 min 0,0 UV-I 0 W/m 7,7 km/h (2 Bft)
10.05.2014 05:02 8,3 C 6,7 C 95 % 1013,7 hPa 0,0 l/m 0 min 0 min 0,0 UV-I 0 W/m 5,1 km/h (1 Bft)
10.05.2014 05:06 8,3 C 6,7 C 96 % 1013,8 hPa 0,0 l/m 0 min 0 min 0,0 UV-I 0 W/m 10,3 km/h (2 Bft)
10.05.2014 05:08 8,4 C 7,2 C 96 % 1013,8 hPa 0,0 l/m 0 min 0 min 0,0 UV-I 0 W/m 10,3 km/h (2 Bft)
10.05.2014 05:10 8,4 C 7,2 C 95 % 1013,8 hPa 0,0 l/m 0 min 0 min 0,0 UV-I 0 W/m 2,6 km/h (1 Bft)
10.05.2014 05:12 8,4 C 7,2 C 95 % 1013,8 hPa 0,0 l/m 0 min 0 min 0,0 UV-I 0 W/m 7,7 km/h (2 Bft)
10.05.2014 05:14 8,4 C 7,2 C 95 % 1013,7 hPa 0,0 l/m 0 min 0 min 0,0 UV-I 0 W/m 5,1 km/h (1 Bft)
10.05.2014 05:16 8,5 C 7,2 C 95 % 1013,6 hPa 0,0 l/m 0 min 0 min 0,0 UV-I 0 W/m 7,7 km/h (2 Bft)
10.05.2014 05:18 8,5 C 7,2 C 95 % 1013,6 hPa 0,0 l/m 0 min 0 min 0,0 UV-I 0 W/m 10,3 km/h (2 Bft)
10.05.2014 05:20 8,5 C 7,2 C 95 % 1013,6 hPa 0,0 l/m 0 min 0 min 0,0 UV-I 0 W/m 15,4 km/h (3 Bft)
10.05.2014 05:22 8,6 C 7,2 C 95 % 1013,7 hPa 0,0 l/m 0 min 0 min 0,0 UV-I 0 W/m 2,6 km/h (1 Bft)
10.05.2014 05:24 8,6 C 7,2 C 95 % 1013,6 hPa 0,0 l/m 0 min 0 min 0,0 UV-I 0 W/m 7,7 km/h (2 Bft)
10.05.2014 05:26 8,6 C 7,2 C 95 % 1013,6 hPa 0,0 l/m 0 min 0 min 0,0 UV-I 0 W/m 5,1 km/h (1 Bft)
10.05.2014 05:28 8,6 C 7,2 C 95 % 1013,6 hPa 0,0 l/m 0 min 0 min 0,0 UV-I 0 W/m 7,7 km/h (2 Bft)
10.05.2014 05:30 8,6 C 7,2 C 95 % 1013,6 hPa 0,0 l/m 0 min 0 min 0,0 UV-I 0 W/m 0,0 km/h (0 Bft)
10.05.2014 05:32 8,7 C 7,2 C 95 % 1013,6 hPa 0,0 l/m 0 min 0 min 0,0 UV-I 0 W/m 10,3 km/h (2 Bft)
10.05.2014 05:34 8,7 C 7,2 C 95 % 1013,6 hPa 0,0 l/m 0 min 0 min 0,0 UV-I 0 W/m 10,3 km/h (2 Bft)
10.05.2014 05:36 8,7 C 7,2 C 95 % 1013,5 hPa 0,0 l/m 0 min 0 min 0,0 UV-I 0 W/m 7,7 km/h (2 Bft)
10.05.2014 05:38 8,7 C 7,2 C 95 % 1013,4 hPa 0,0 l/m 0 min 0 min 0,0 UV-I 0 W/m 10,3 km/h (2 Bft)
10.05.2014 05:40 8,7 C 7,2 C 94 % 1013,3 hPa 0,0 l/m 0 min 0 min 0,0 UV-I 0 W/m 0,0 km/h (0 Bft)
10.05.2014 05:42 8,7 C 7,2 C 94 % 1013,4 hPa 0,0 l/m 0 min 0 min 0,0 UV-I 0 W/m 12,9 km/h (3 Bft)
10.05.2014 05:44 8,7 C 7,2 C 94 % 1013,4 hPa 0,0 l/m 0 min 0 min 0,0 UV-I 0 W/m 15,4 km/h (3 Bft)
10.05.2014 05:46 8,7 C 7,2 C 94 % 1013,4 hPa 0,0 l/m 0 min 0 min 0,0 UV-I 5 W/m 5,1 km/h (1 Bft)
10.05.2014 05:48 8,7 C 7,2 C 94 % 1013,3 hPa 0,0 l/m 0 min 0 min 0,0 UV-I 5 W/m 10,3 km/h (2 Bft)
10.05.2014 05:50 8,7 C 7,2 C 94 % 1013,3 hPa 0,0 l/m 0 min 0 min 0,0 UV-I 7 W/m 7,7 km/h (2 Bft)
10.05.2014 05:52 8,7 C 7,2 C 94 % 1013,3 hPa 0,0 l/m 0 min 0 min 0,0 UV-I 7 W/m 10,3 km/h (2 Bft)
10.05.2014 05:54 8,8 C 7,2 C 94 % 1013,2 hPa 0,0 l/m 0 min 0 min 0,0 UV-I 7 W/m 2,6 km/h (1 Bft)
10.05.2014 05:56 8,7 C 7,2 C 94 % 1013,2 hPa 0,0 l/m 0 min 0 min 0,0 UV-I 7 W/m 12,9 km/h (3 Bft)
10.05.2014 05:58 8,8 C 7,2 C 94 % 1013,1 hPa 0,0 l/m 0 min 0 min 0,0 UV-I 9 W/m 5,1 km/h (1 Bft)
10.05.2014 06:00 8,8 C 7,2 C 94 % 1013,1 hPa 0,0 l/m 0 min 0 min 0,0 UV-I 9 W/m 7,7 km/h (2 Bft)
10.05.2014 06:02 8,8 C 7,2 C 94 % 1013,1 hPa 0,0 l/m 0 min 0 min 0,0 UV-I 11 W/m 12,9 km/h (3 Bft)
10.05.2014 06:05 8,8 C 7,2 C 94 % 1013,2 hPa 0,0 l/m 0 min 0 min 0,0 UV-I 12 W/m 7,7 km/h (2 Bft)
10.05.2014 06:06 8,8 C 7,2 C 94 % 1013,2 hPa 0,0 l/m 0 min 0 min 0,0 UV-I 12 W/m 0,0 km/h (0 Bft)
10.05.2014 06:08 8,8 C 7,2 C 94 % 1013,2 hPa 0,0 l/m 0 min 0 min 0,0 UV-I 14 W/m 0,0 km/h (0 Bft)
10.05.2014 06:10 8,8 C 7,2 C 94 % 1013,2 hPa 0,0 l/m 0 min 0 min 0,0 UV-I 14 W/m 0,0 km/h (0 Bft)
10.05.2014 06:12 8,8 C 7,2 C 94 % 1013,2 hPa 0,0 l/m 0 min 0 min 0,0 UV-I 14 W/m 10,3 km/h (2 Bft)
10.05.2014 06:14 8,8 C 7,2 C 94 % 1013,2 hPa 0,0 l/m 0 min 0 min 0,0 UV-I 14 W/m 12,9 km/h (3 Bft)
10.05.2014 06:16 8,8 C 7,2 C 94 % 1013,2 hPa 0,0 l/m 0 min 0 min 0,0 UV-I 16 W/m 7,7 km/h (2 Bft)
10.05.2014 06:18 8,8 C 7,2 C 94 % 1013,2 hPa 0,0 l/m 0 min 0 min 0,0 UV-I 16 W/m 12,9 km/h (3 Bft)
10.05.2014 06:20 8,8 C 7,2 C 94 % 1013,2 hPa 0,0 l/m 0 min 0 min 0,0 UV-I 18 W/m 12,9 km/h (3 Bft)
10.05.2014 06:22 8,8 C 7,2 C 94 % 1013,1 hPa 0,0 l/m 0 min 0 min 0,0 UV-I 19 W/m 7,7 km/h (2 Bft)
10.05.2014 06:24 8,8 C 7,2 C 93 % 1013,2 hPa 0,0 l/m 0 min 0 min 0,0 UV-I 21 W/m 12,9 km/h (3 Bft)
10.05.2014 06:26 8,9 C 7,2 C 93 % 1013,3 hPa 0,0 l/m 0 min 0 min 0,0 UV-I 21 W/m 5,1 km/h (1 Bft)
10.05.2014 06:28 8,9 C 7,2 C 93 % 1013,3 hPa 0,0 l/m 0 min 0 min 0,0 UV-I 21 W/m 7,7 km/h (2 Bft)
10.05.2014 06:30 8,9 C 7,2 C 93 % 1013,3 hPa 0,0 l/m 0 min 0 min 0,0 UV-I 23 W/m 7,7 km/h (2 Bft)
10.05.2014 06:32 8,9 C 7,2 C 93 % 1013,3 hPa 0,0 l/m 0 min 0 min 0,0 UV-I 25 W/m 5,1 km/h (1 Bft)
10.05.2014 06:34 8,9 C 7,2 C 93 % 1013,3 hPa 0,0 l/m 0 min 0 min 0,0 UV-I 26 W/m 0,0 km/h (0 Bft)
10.05.2014 06:36 8,9 C 7,2 C 93 % 1013,3 hPa 0,0 l/m 0 min 0 min 0,0 UV-I 28 W/m 0,0 km/h (0 Bft)
10.05.2014 06:38 8,9 C 7,8 C 93 % 1013,2 hPa 0,0 l/m 0 min 0 min 0,0 UV-I 30 W/m 12,9 km/h (3 Bft)
10.05.2014 06:40 8,9 C 7,8 C 93 % 1013,1 hPa 0,0 l/m 0 min 0 min 0,0 UV-I 28 W/m 7,7 km/h (2 Bft)
10.05.2014 06:42 8,9 C 7,8 C 93 % 1013,1 hPa 0,0 l/m 0 min 0 min 0,0 UV-I 28 W/m 0,0 km/h (0 Bft)
10.05.2014 06:44 9,0 C 7,8 C 93 % 1013,1 hPa 0,0 l/m 0 min 0 min 0,0 UV-I 26 W/m 7,7 km/h (2 Bft)
10.05.2014 06:46 8,9 C 7,8 C 93 % 1013,1 hPa 0,0 l/m 0 min 0 min 0,0 UV-I 32 W/m 0,0 km/h (0 Bft)
10.05.2014 06:48 8,9 C 7,8 C 93 % 1013,1 hPa 0,0 l/m 0 min 0 min 0,0 UV-I 35 W/m 10,3 km/h (2 Bft)
10.05.2014 06:50 8,9 C 7,8 C 93 % 1013,2 hPa 0,0 l/m 0 min 0 min 0,0 UV-I 39 W/m 12,9 km/h (3 Bft)
10.05.2014 06:52 9,0 C 7,8 C 93 % 1013,2 hPa 0,0 l/m 0 min 0 min 0,0 UV-I 54 W/m 2,6 km/h (1 Bft)
10.05.2014 06:54 9,0 C 7,8 C 93 % 1013,1 hPa 0,0 l/m 0 min 0 min 0,0 UV-I 58 W/m 7,7 km/h (2 Bft)
10.05.2014 06:56 9,1 C 7,8 C 93 % 1013,1 hPa 0,0 l/m 0 min 0 min 0,0 UV-I 58 W/m 12,9 km/h (3 Bft)
10.05.2014 06:58 9,1 C 7,8 C 92 % 1013,1 hPa 0,0 l/m 0 min 0 min 0,0 UV-I 54 W/m 10,3 km/h (2 Bft)
10.05.2014 07:00 9,1 C 7,8 C 92 % 1013,2 hPa 0,0 l/m 0 min 0 min 0,0 UV-I 51 W/m 5,1 km/h (1 Bft)
10.05.2014 07:02 9,2 C 7,8 C 92 % 1013,1 hPa 0,0 l/m 0 min 0 min 0,0 UV-I 49 W/m 0,0 km/h (0 Bft)
10.05.2014 07:05 9,2 C 7,8 C 92 % 1013,2 hPa 0,0 l/m 0 min 0 min 0,0 UV-I 47 W/m 7,7 km/h (2 Bft)
10.05.2014 07:06 9,2 C 7,8 C 92 % 1013,2 hPa 0,0 l/m 0 min 0 min 0,0 UV-I 49 W/m 0,0 km/h (0 Bft)
10.05.2014 07:08 9,2 C 7,8 C 92 % 1013,2 hPa 0,0 l/m 0 min 0 min 0,0 UV-I 56 W/m 7,7 km/h (2 Bft)
10.05.2014 07:10 9,2 C 7,8 C 92 % 1013,2 hPa 0,0 l/m 0 min 0 min 0,0 UV-I 63 W/m 10,3 km/h (2 Bft)
10.05.2014 07:12 9,3 C 7,8 C 92 % 1013,2 hPa 0,0 l/m 0 min 0 min 0,0 UV-I 69 W/m 10,3 km/h (2 Bft)
10.05.2014 07:14 9,3 C 7,8 C 92 % 1013,2 hPa 0,0 l/m 0 min 0 min 0,0 UV-I 76 W/m 0,0 km/h (0 Bft)
10.05.2014 07:16 9,3 C 7,8 C 92 % 1013,2 hPa 0,0 l/m 0 min 0 min 0,0 UV-I 76 W/m 0,0 km/h (0 Bft)
10.05.2014 07:18 9,3 C 8,3 C 92 % 1013,1 hPa 0,0 l/m 0 min 0 min 0,0 UV-I 77 W/m 7,7 km/h (2 Bft)
10.05.2014 07:20 9,3 C 8,3 C 92 % 1013,0 hPa 0,0 l/m 0 min 0 min 0,0 UV-I 83 W/m 0,0 km/h (0 Bft)
10.05.2014 07:22 9,4 C 8,3 C 92 % 1013,1 hPa 0,0 l/m 0 min 0 min 0,0 UV-I 91 W/m 5,1 km/h (1 Bft)
10.05.2014 07:24 9,4 C 8,3 C 92 % 1013,0 hPa 0,0 l/m 0 min 0 min 0,0 UV-I 102 W/m 7,7 km/h (2 Bft)
10.05.2014 07:26 9,5 C 8,3 C 92 % 1013,0 hPa 0,0 l/m 0 min 0 min 0,0 UV-I 102 W/m 5,1 km/h (1 Bft)
10.05.2014 07:28 9,5 C 8,3 C 92 % 1012,9 hPa 0,0 l/m 0 min 0 min 0,0 UV-I 93 W/m 5,1 km/h (1 Bft)
10.05.2014 07:30 9,5 C 8,3 C 92 % 1012,9 hPa 0,0 l/m 0 min 0 min 0,0 UV-I 86 W/m 10,3 km/h (2 Bft)
10.05.2014 07:32 9,6 C 8,3 C 92 % 1012,9 hPa 0,0 l/m 0 min 0 min 0,0 UV-I 91 W/m 2,6 km/h (1 Bft)
10.05.2014 07:34 9,6 C 8,3 C 92 % 1012,9 hPa 0,0 l/m 0 min 0 min 0,0 UV-I 100 W/m 10,3 km/h (2 Bft)
10.05.2014 07:36 9,7 C 8,3 C 92 % 1012,8 hPa 0,0 l/m 0 min 0 min 0,0 UV-I 105 W/m 5,1 km/h (1 Bft)
10.05.2014 07:38 9,7 C 8,3 C 91 % 1012,8 hPa 0,0 l/m 0 min 0 min 0,0 UV-I 111 W/m 2,6 km/h (1 Bft)
10.05.2014 07:40 9,7 C 8,3 C 92 % 1012,8 hPa 0,0 l/m 0 min 0 min 0,0 UV-I 113 W/m 10,3 km/h (2 Bft)
10.05.2014 07:42 9,8 C 8,9 C 91 % 1012,8 hPa 0,0 l/m 0 min 0 min 0,0 UV-I 114 W/m 0,0 km/h (0 Bft)
10.05.2014 07:44 9,8 C 8,9 C 91 % 1012,7 hPa 0,0 l/m 0 min 0 min 0,0 UV-I 113 W/m 7,7 km/h (2 Bft)
10.05.2014 07:46 9,9 C 8,9 C 91 % 1012,7 hPa 0,0 l/m 0 min 0 min 0,0 UV-I 111 W/m 10,3 km/h (2 Bft)
10.05.2014 07:48 9,9 C 8,9 C 91 % 1012,7 hPa 0,0 l/m 0 min 0 min 0,0 UV-I 111 W/m 10,3 km/h (2 Bft)
10.05.2014 07:50 9,9 C 8,9 C 91 % 1012,8 hPa 0,0 l/m 0 min 0 min 0,0 UV-I 109 W/m 7,7 km/h (2 Bft)
10.05.2014 07:52 10,0 C 8,9 C 91 % 1012,8 hPa 0,0 l/m 0 min 0 min 0,0 UV-I 113 W/m 7,7 km/h (2 Bft)
10.05.2014 07:54 10,0 C 8,9 C 90 % 1012,7 hPa 0,0 l/m 0 min 0 min 0,0 UV-I 118 W/m 12,9 km/h (3 Bft)
10.05.2014 07:56 10,1 C 8,9 C 90 % 1012,7 hPa 0,0 l/m 0 min 0 min 0,0 UV-I 135 W/m 12,9 km/h (3 Bft)
10.05.2014 07:58 10,1 C 8,9 C 90 % 1012,7 hPa 0,0 l/m 0 min 0 min 0,0 UV-I 151 W/m 12,9 km/h (3 Bft)
10.05.2014 08:00 10,2 C 8,9 C 90 % 1012,7 hPa 0,0 l/m 0 min 0 min 0,0 UV-I 158 W/m 20,6 km/h (4 Bft)
10.05.2014 08:02 10,2 C 8,9 C 90 % 1012,7 hPa 0,0 l/m 0 min 0 min 0,0 UV-I 167 W/m 15,4 km/h (3 Bft)
10.05.2014 08:05 10,3 C 9,4 C 90 % 1012,6 hPa 0,0 l/m 2 min 0 min 0,0 UV-I 178 W/m 10,3 km/h (2 Bft)
10.05.2014 08:06 10,3 C 9,4 C 90 % 1012,6 hPa 0,0 l/m 0 min 0 min 0,0 UV-I 176 W/m 0,0 km/h (0 Bft)
10.05.2014 08:08 10,4 C 9,4 C 90 % 1012,6 hPa 0,0 l/m 0 min 0 min 0,0 UV-I 172 W/m 0,0 km/h (0 Bft)
10.05.2014 08:10 10,5 C 9,4 C 90 % 1012,6 hPa 0,0 l/m 0 min 0 min 0,0 UV-I 169 W/m 10,3 km/h (2 Bft)
10.05.2014 08:12 10,6 C 9,4 C 90 % 1012,6 hPa 0,0 l/m 0 min 0 min 0,0 UV-I 185 W/m 10,3 km/h (2 Bft)
10.05.2014 08:14 10,7 C 9,4 C 89 % 1012,6 hPa 0,0 l/m 0 min 0 min 0,0 UV-I 162 W/m 2,6 km/h (1 Bft)
10.05.2014 08:16 10,7 C 9,4 C 89 % 1012,6 hPa 0,0 l/m 0 min 0 min 0,0 UV-I 160 W/m 10,3 km/h (2 Bft)
10.05.2014 08:18 10,8 C 10,0 C 89 % 1012,5 hPa 0,0 l/m 0 min 0 min 0,0 UV-I 169 W/m 0,0 km/h (0 Bft)
10.05.2014 08:20 10,8 C 10,0 C 89 % 1012,5 hPa 0,0 l/m 0 min 0 min 0,0 UV-I 181 W/m 15,4 km/h (3 Bft)
10.05.2014 08:22 10,8 C 10,0 C 88 % 1012,5 hPa 0,0 l/m 0 min 0 min 0,0 UV-I 199 W/m 15,4 km/h (3 Bft)
10.05.2014 08:24 10,8 C 10,0 C 88 % 1012,4 hPa 0,0 l/m 2 min 0 min 0,0 UV-I 209 W/m 15,4 km/h (3 Bft)
10.05.2014 08:26 10,9 C 10,0 C 88 % 1012,5 hPa 0,0 l/m 0 min 0 min 0,0 UV-I 204 W/m 18,0 km/h (3 Bft)
10.05.2014 08:28 10,9 C 10,0 C 88 % 1012,5 hPa 0,0 l/m 2 min 0 min 0,0 UV-I 218 W/m 20,6 km/h (4 Bft)
10.05.2014 08:30 10,9 C 10,0 C 87 % 1012,5 hPa 0,0 l/m 0 min 0 min 0,0 UV-I 135 W/m 15,4 km/h (3 Bft)
10.05.2014 08:32 10,9 C 10,0 C 87 % 1012,5 hPa 0,0 l/m 0 min 0 min 0,0 UV-I 116 W/m 12,9 km/h (3 Bft)
10.05.2014 08:34 10,9 C 9,4 C 87 % 1012,4 hPa 0,0 l/m 0 min 0 min 0,0 UV-I 109 W/m 23,2 km/h (4 Bft)
10.05.2014 08:36 10,9 C 9,4 C 87 % 1012,4 hPa 0,0 l/m 0 min 0 min 0,0 UV-I 109 W/m 5,1 km/h (1 Bft)
10.05.2014 08:38 10,9 C 9,4 C 87 % 1012,4 hPa 0,0 l/m 0 min 0 min 0,0 UV-I 109 W/m 10,3 km/h (2 Bft)
10.05.2014 08:40 10,9 C 9,4 C 87 % 1012,4 hPa 0,0 l/m 0 min 0 min 0,0 UV-I 105 W/m 5,1 km/h (1 Bft)
10.05.2014 08:42 10,9 C 9,4 C 87 % 1012,4 hPa 0,0 l/m 0 min 0 min 0,0 UV-I 91 W/m 2,6 km/h (1 Bft)
10.05.2014 08:44 10,9 C 9,4 C 87 % 1012,5 hPa 0,0 l/m 0 min 0 min 0,0 UV-I 88 W/m 10,3 km/h (2 Bft)
10.05.2014 08:46 10,9 C 9,4 C 87 % 1012,4 hPa 0,0 l/m 0 min 0 min 0,0 UV-I 95 W/m 10,3 km/h (2 Bft)
10.05.2014 08:48 10,9 C 9,4 C 87 % 1012,4 hPa 0,0 l/m 0 min 0 min 0,0 UV-I 116 W/m 10,3 km/h (2 Bft)
10.05.2014 08:50 10,9 C 10,0 C 87 % 1012,4 hPa 0,0 l/m 0 min 0 min 0,0 UV-I 130 W/m 7,7 km/h (2 Bft)
10.05.2014 08:52 10,9 C 10,0 C 87 % 1012,4 hPa 0,0 l/m 0 min 0 min 0,0 UV-I 135 W/m 2,6 km/h (1 Bft)
10.05.2014 08:54 10,9 C 10,0 C 87 % 1012,4 hPa 0,0 l/m 0 min 0 min 0,0 UV-I 135 W/m 10,3 km/h (2 Bft)
10.05.2014 08:56 11,0 C 10,0 C 88 % 1012,3 hPa 0,0 l/m 0 min 0 min 0,0 UV-I 137 W/m 7,7 km/h (2 Bft)
10.05.2014 08:58 11,0 C 10,0 C 87 % 1012,3 hPa 0,0 l/m 0 min 0 min 0,0 UV-I 137 W/m 7,7 km/h (2 Bft)
10.05.2014 09:00 11,1 C 10,0 C 87 % 1012,3 hPa 0,0 l/m 0 min 0 min 0,0 UV-I 128 W/m 15,4 km/h (3 Bft)
10.05.2014 09:02 11,1 C 10,0 C 87 % 1012,3 hPa 0,0 l/m 0 min 0 min 0,0 UV-I 118 W/m 7,7 km/h (2 Bft)
10.05.2014 09:05 11,1 C 10,0 C 87 % 1012,3 hPa 0,0 l/m 0 min 0 min 0,0 UV-I 97 W/m 7,7 km/h (2 Bft)
10.05.2014 09:06 11,1 C 10,0 C 87 % 1012,3 hPa 0,0 l/m 0 min 0 min 0,0 UV-I 91 W/m 0,0 km/h (0 Bft)
10.05.2014 09:08 11,1 C 10,0 C 87 % 1012,4 hPa 0,0 l/m 0 min 2 min 0,0 UV-I 88 W/m 7,7 km/h (2 Bft)
10.05.2014 09:10 11,1 C 10,0 C 87 % 1012,3 hPa 0,0 l/m 0 min 0 min 0,0 UV-I 91 W/m 2,6 km/h (1 Bft)
10.05.2014 09:12 11,1 C 10,0 C 88 % 1012,3 hPa 0,0 l/m 0 min 0 min 0,0 UV-I 95 W/m 2,6 km/h (1 Bft)
10.05.2014 09:14 11,1 C 10,0 C 87 % 1012,3 hPa 0,0 l/m 0 min 0 min 0,0 UV-I 98 W/m 5,1 km/h (1 Bft)
10.05.2014 09:16 11,1 C 10,0 C 87 % 1012,3 hPa 0,0 l/m 0 min 0 min 0,0 UV-I 97 W/m 5,1 km/h (1 Bft)
10.05.2014 09:18 11,1 C 10,0 C 87 % 1012,3 hPa 0,0 l/m 0 min 0 min 0,0 UV-I 91 W/m 0,0 km/h (0 Bft)
10.05.2014 09:20 11,1 C 10,0 C 87 % 1012,3 hPa 0,0 l/m 0 min 2 min 0,0 UV-I 90 W/m 7,7 km/h (2 Bft)
10.05.2014 09:22 11,1 C 10,0 C 87 % 1012,3 hPa 0,0 l/m 0 min 2 min 0,0 UV-I 90 W/m 2,6 km/h (1 Bft)
10.05.2014 09:24 11,1 C 10,0 C 87 % 1012,2 hPa 0,0 l/m 0 min 2 min 0,0 UV-I 86 W/m 2,6 km/h (1 Bft)
10.05.2014 09:26 11,1 C 10,0 C 87 % 1012,2 hPa 0,0 l/m 0 min 0 min 0,0 UV-I 77 W/m 20,6 km/h (4 Bft)
10.05.2014 09:28 11,1 C 9,4 C 87 % 1012,2 hPa 0,0 l/m 0 min 2 min 0,0 UV-I 67 W/m 12,9 km/h (3 Bft)
10.05.2014 09:30 11,1 C 9,4 C 87 % 1012,1 hPa 0,0 l/m 0 min 0 min 0,0 UV-I 65 W/m 5,1 km/h (1 Bft)
10.05.2014 09:32 11,1 C 9,4 C 86 % 1012,2 hPa 0,0 l/m 0 min 0 min 0,0 UV-I 60 W/m 10,3 km/h (2 Bft)
10.05.2014 09:34 11,1 C 9,4 C 86 % 1012,1 hPa 0,0 l/m 0 min 2 min 0,0 UV-I 58 W/m 0,0 km/h (0 Bft)
10.05.2014 09:36 11,1 C 9,4 C 87 % 1012,2 hPa 0,0 l/m 0 min 2 min 0,0 UV-I 53 W/m 7,7 km/h (2 Bft)
10.05.2014 09:38 11,1 C 9,4 C 87 % 1012,1 hPa 0,0 l/m 0 min 2 min 0,0 UV-I 53 W/m 7,7 km/h (2 Bft)
10.05.2014 09:40 11,0 C 8,9 C 87 % 1012,1 hPa 0,0 l/m 0 min 2 min 0,0 UV-I 53 W/m 2,6 km/h (1 Bft)
10.05.2014 09:42 11,0 C 8,9 C 87 % 1012,1 hPa 0,0 l/m 0 min 2 min 0,0 UV-I 46 W/m 10,3 km/h (2 Bft)
10.05.2014 09:44 10,9 C 8,9 C 88 % 1012,1 hPa 0,0 l/m 0 min 2 min 0,0 UV-I 37 W/m 2,6 km/h (1 Bft)
10.05.2014 09:46 10,9 C 8,9 C 88 % 1012,1 hPa 0,0 l/m 0 min 2 min 0,0 UV-I 39 W/m 5,1 km/h (1 Bft)
10.05.2014 09:48 10,8 C 8,9 C 88 % 1012,2 hPa 0,0 l/m 0 min 2 min 0,0 UV-I 40 W/m 5,1 km/h (1 Bft)
10.05.2014 09:50 10,8 C 8,9 C 88 % 1012,2 hPa 0,0 l/m 0 min 2 min 0,0 UV-I 44 W/m 0,0 km/h (0 Bft)
10.05.2014 09:52 10,8 C 8,9 C 89 % 1012,1 hPa 0,2 l/m 0 min 2 min 0,0 UV-I 56 W/m 0,0 km/h (0 Bft)
10.05.2014 09:54 10,8 C 8,9 C 89 % 1012,1 hPa 0,0 l/m 0 min 2 min 0,0 UV-I 69 W/m 7,7 km/h (2 Bft)
10.05.2014 09:56 10,7 C 8,9 C 89 % 1012,1 hPa 0,0 l/m 0 min 2 min 0,0 UV-I 69 W/m 0,0 km/h (0 Bft)
10.05.2014 09:58 10,7 C 8,9 C 89 % 1012,2 hPa 0,0 l/m 0 min 2 min 0,0 UV-I 60 W/m 7,7 km/h (2 Bft)
10.05.2014 10:00 10,7 C 8,9 C 90 % 1012,1 hPa 0,2 l/m 0 min 2 min 0,0 UV-I 63 W/m 7,7 km/h (2 Bft)
10.05.2014 10:02 10,7 C 8,9 C 90 % 1012,1 hPa 0,0 l/m 0 min 2 min 0,0 UV-I 77 W/m 0,0 km/h (0 Bft)
10.05.2014 10:06 10,7 C 8,9 C 91 % 1012,0 hPa 0,0 l/m 0 min 2 min 0,0 UV-I 74 W/m 0,0 km/h (0 Bft)
10.05.2014 10:08 10,7 C 9,4 C 91 % 1012,1 hPa 0,0 l/m 0 min 2 min 0,0 UV-I 65 W/m 5,1 km/h (1 Bft)
10.05.2014 10:10 10,6 C 9,4 C 92 % 1012,1 hPa 0,0 l/m 0 min 2 min 0,0 UV-I 62 W/m 7,7 km/h (2 Bft)
10.05.2014 10:12 10,6 C 9,4 C 92 % 1012,2 hPa 0,0 l/m 0 min 2 min 0,0 UV-I 56 W/m 0,0 km/h (0 Bft)
10.05.2014 10:14 10,6 C 9,4 C 92 % 1012,3 hPa 0,0 l/m 0 min 2 min 0,0 UV-I 56 W/m 5,1 km/h (1 Bft)
10.05.2014 10:16 10,6 C 9,4 C 92 % 1012,2 hPa 0,0 l/m 0 min 2 min 0,0 UV-I 76 W/m 2,6 km/h (1 Bft)
10.05.2014 10:18 10,6 C 9,4 C 93 % 1012,2 hPa 0,0 l/m 0 min 2 min 0,0 UV-I 77 W/m 2,6 km/h (1 Bft)
10.05.2014 10:20 10,5 C 9,4 C 93 % 1012,1 hPa 0,2 l/m 0 min 2 min 0,0 UV-I 88 W/m 5,1 km/h (1 Bft)
10.05.2014 10:22 10,6 C 9,4 C 93 % 1012,1 hPa 0,0 l/m 0 min 2 min 0,0 UV-I 100 W/m 5,1 km/h (1 Bft)
10.05.2014 10:24 10,5 C 9,4 C 93 % 1012,1 hPa 0,0 l/m 0 min 2 min 0,0 UV-I 107 W/m 5,1 km/h (1 Bft)
10.05.2014 10:26 10,5 C 9,4 C 94 % 1011,9 hPa 0,0 l/m 0 min 2 min 0,0 UV-I 107 W/m 7,7 km/h (2 Bft)
10.05.2014 10:28 10,5 C 9,4 C 94 % 1011,8 hPa 0,0 l/m 0 min 2 min 0,0 UV-I 118 W/m 10,3 km/h (2 Bft)
10.05.2014 10:30 10,6 C 9,4 C 94 % 1011,8 hPa 0,0 l/m 0 min 2 min 0,0 UV-I 86 W/m 0,0 km/h (0 Bft)
10.05.2014 10:32 10,6 C 9,4 C 94 % 1011,8 hPa 0,2 l/m 0 min 2 min 0,0 UV-I 77 W/m 0,0 km/h (0 Bft)
10.05.2014 10:34 10,6 C 9,4 C 94 % 1011,8 hPa 0,0 l/m 0 min 2 min 0,0 UV-I 81 W/m 10,3 km/h (2 Bft)
10.05.2014 10:36 10,6 C 9,4 C 94 % 1011,7 hPa 0,0 l/m 0 min 2 min 0,0 UV-I 83 W/m 5,1 km/h (1 Bft)
10.05.2014 10:38 10,6 C 9,4 C 94 % 1011,7 hPa 0,0 l/m 0 min 2 min 0,0 UV-I 86 W/m 0,0 km/h (0 Bft)
10.05.2014 10:40 10,6 C 9,4 C 94 % 1011,7 hPa 0,0 l/m 0 min 2 min 0,0 UV-I 84 W/m 0,0 km/h (0 Bft)
10.05.2014 10:42 10,6 C 9,4 C 94 % 1011,6 hPa 0,0 l/m 0 min 2 min 0,0 UV-I 93 W/m 2,6 km/h (1 Bft)
10.05.2014 10:44 10,6 C 9,4 C 94 % 1011,7 hPa 0,0 l/m 0 min 2 min 0,0 UV-I 81 W/m 7,7 km/h (2 Bft)
10.05.2014 10:46 10,6 C 9,4 C 94 % 1011,6 hPa 0,0 l/m 0 min 2 min 0,0 UV-I 65 W/m 2,6 km/h (1 Bft)
10.05.2014 10:48 10,6 C 9,4 C 95 % 1011,6 hPa 0,0 l/m 0 min 2 min 0,0 UV-I 54 W/m 5,1 km/h (1 Bft)
10.05.2014 10:50 10,6 C 9,4 C 94 % 1011,6 hPa 0,0 l/m 0 min 2 min 0,0 UV-I 60 W/m 2,6 km/h (1 Bft)
10.05.2014 10:52 10,6 C 9,4 C 94 % 1011,6 hPa 0,0 l/m 0 min 2 min 0,0 UV-I 53 W/m 0,0 km/h (0 Bft)
10.05.2014 10:54 10,6 C 9,4 C 95 % 1011,5 hPa 0,2 l/m 0 min 2 min 0,0 UV-I 72 W/m 0,0 km/h (0 Bft)
10.05.2014 10:56 10,6 C 9,4 C 95 % 1011,3 hPa 0,0 l/m 0 min 2 min 0,0 UV-I 93 W/m 0,0 km/h (0 Bft)
10.05.2014 10:58 10,6 C 9,4 C 95 % 1011,2 hPa 0,0 l/m 0 min 2 min 0,0 UV-I 95 W/m 2,6 km/h (1 Bft)
10.05.2014 11:00 10,7 C 9,4 C 95 % 1011,2 hPa 0,0 l/m 0 min 2 min 0,0 UV-I 104 W/m 7,7 km/h (2 Bft)
10.05.2014 11:02 10,7 C 9,4 C 95 % 1011,2 hPa 0,0 l/m 0 min 2 min 0,0 UV-I 107 W/m 10,3 km/h (2 Bft)
10.05.2014 11:06 10,8 C 10,0 C 95 % 1011,1 hPa 0,0 l/m 0 min 2 min 0,0 UV-I 121 W/m 5,1 km/h (1 Bft)
10.05.2014 11:08 10,8 C 10,0 C 95 % 1011,0 hPa 0,0 l/m 0 min 2 min 0,0 UV-I 113 W/m 7,7 km/h (2 Bft)
10.05.2014 11:10 10,8 C 10,0 C 95 % 1010,9 hPa 0,0 l/m 0 min 2 min 0,0 UV-I 91 W/m 7,7 km/h (2 Bft)
10.05.2014 11:12 10,8 C 10,0 C 95 % 1010,9 hPa 0,2 l/m 0 min 2 min 0,0 UV-I 81 W/m 2,6 km/h (1 Bft)
10.05.2014 11:14 10,8 C 10,0 C 95 % 1010,8 hPa 0,0 l/m 0 min 2 min 0,0 UV-I 77 W/m 5,1 km/h (1 Bft)
10.05.2014 11:16 10,8 C 9,4 C 95 % 1010,8 hPa 0,0 l/m 0 min 2 min 0,0 UV-I 54 W/m 10,3 km/h (2 Bft)
10.05.2014 11:18 10,8 C 9,4 C 96 % 1010,8 hPa 0,0 l/m 0 min 2 min 0,0 UV-I 46 W/m 12,9 km/h (3 Bft)
10.05.2014 11:20 10,7 C 9,4 C 96 % 1010,7 hPa 0,0 l/m 0 min 2 min 0,0 UV-I 67 W/m 15,4 km/h (3 Bft)
10.05.2014 11:22 10,7 C 9,4 C 96 % 1010,6 hPa 0,0 l/m 0 min 2 min 0,0 UV-I 83 W/m 10,3 km/h (2 Bft)
10.05.2014 11:24 10,7 C 9,4 C 96 % 1010,6 hPa 0,0 l/m 0 min 2 min 0,0 UV-I 81 W/m 10,3 km/h (2 Bft)
10.05.2014 11:26 10,7 C 9,4 C 96 % 1010,6 hPa 0,0 l/m 0 min 2 min 0,0 UV-I 76 W/m 7,7 km/h (2 Bft)
10.05.2014 11:28 10,7 C 9,4 C 96 % 1010,5 hPa 0,0 l/m 0 min 2 min 0,0 UV-I 76 W/m 12,9 km/h (3 Bft)
10.05.2014 11:30 10,7 C 9,4 C 96 % 1010,5 hPa 0,2 l/m 0 min 2 min 0,0 UV-I 77 W/m 7,7 km/h (2 Bft)
10.05.2014 11:32 10,7 C 9,4 C 96 % 1010,4 hPa 0,0 l/m 0 min 2 min 0,0 UV-I 95 W/m 5,1 km/h (1 Bft)
10.05.2014 11:34 10,7 C 9,4 C 96 % 1010,4 hPa 0,0 l/m 0 min 2 min 0,0 UV-I 98 W/m 0,0 km/h (0 Bft)
10.05.2014 11:36 10,8 C 10,0 C 96 % 1010,4 hPa 0,0 l/m 0 min 2 min 0,0 UV-I 100 W/m 15,4 km/h (3 Bft)
10.05.2014 11:38 10,8 C 10,0 C 96 % 1010,4 hPa 0,0 l/m 0 min 2 min 0,0 UV-I 123 W/m 12,9 km/h (3 Bft)
10.05.2014 11:40 10,8 C 10,0 C 96 % 1010,4 hPa 0,2 l/m 0 min 2 min 0,0 UV-I 127 W/m 0,0 km/h (0 Bft)
10.05.2014 11:42 10,9 C 10,0 C 96 % 1010,3 hPa 0,0 l/m 0 min 2 min 0,0 UV-I 121 W/m 10,3 km/h (2 Bft)
10.05.2014 11:44 10,9 C 10,0 C 96 % 1010,4 hPa 0,0 l/m 0 min 2 min 0,0 UV-I 113 W/m 12,9 km/h (3 Bft)
10.05.2014 11:46 10,8 C 10,0 C 96 % 1010,3 hPa 0,0 l/m 0 min 2 min 0,0 UV-I 114 W/m 18,0 km/h (3 Bft)
10.05.2014 11:48 10,9 C 10,0 C 96 % 1010,3 hPa 0,2 l/m 0 min 2 min 0,0 UV-I 114 W/m 15,4 km/h (3 Bft)
10.05.2014 11:50 10,9 C 10,0 C 96 % 1010,3 hPa 0,0 l/m 0 min 2 min 0,0 UV-I 100 W/m 15,4 km/h (3 Bft)
10.05.2014 11:52 10,9 C 10,0 C 96 % 1010,3 hPa 0,0 l/m 0 min 2 min 0,0 UV-I 102 W/m 12,9 km/h (3 Bft)
10.05.2014 11:54 10,8 C 10,0 C 96 % 1010,2 hPa 0,0 l/m 0 min 2 min 0,0 UV-I 107 W/m 10,3 km/h (2 Bft)
10.05.2014 11:56 10,8 C 10,0 C 96 % 1010,2 hPa 0,0 l/m 0 min 2 min 0,0 UV-I 104 W/m 12,9 km/h (3 Bft)
10.05.2014 11:58 10,8 C 10,0 C 96 % 1010,2 hPa 0,2 l/m 0 min 2 min 0,0 UV-I 100 W/m 7,7 km/h (2 Bft)
10.05.2014 12:00 10,8 C 10,0 C 96 % 1010,2 hPa 0,0 l/m 0 min 2 min 0,0 UV-I 97 W/m 5,1 km/h (1 Bft)
10.05.2014 12:02 10,8 C 10,0 C 96 % 1010,1 hPa 0,0 l/m 0 min 2 min 0,0 UV-I 97 W/m 10,3 km/h (2 Bft)
10.05.2014 12:05 10,8 C 10,0 C 97 % 1010,0 hPa 0,0 l/m 0 min 2 min 0,0 UV-I 100 W/m 15,4 km/h (3 Bft)
10.05.2014 12:06 10,8 C 10,0 C 97 % 1010,0 hPa 0,2 l/m 0 min 1 min 0,0 UV-I 105 W/m 7,7 km/h (2 Bft)
10.05.2014 12:08 10,9 C 10,0 C 97 % 1010,0 hPa 0,0 l/m 0 min 2 min 0,0 UV-I 137 W/m 10,3 km/h (2 Bft)
10.05.2014 12:10 10,9 C 10,0 C 97 % 1010,0 hPa 0,0 l/m 0 min 2 min 0,0 UV-I 160 W/m 10,3 km/h (2 Bft)
10.05.2014 12:12 10,9 C 10,0 C 97 % 1009,8 hPa 0,0 l/m 0 min 2 min 0,0 UV-I 174 W/m 18,0 km/h (3 Bft)
10.05.2014 12:14 11,1 C 10,6 C 97 % 1009,8 hPa 0,2 l/m 0 min 2 min 0,0 UV-I 176 W/m 10,3 km/h (2 Bft)
10.05.2014 12:16 11,1 C 10,6 C 97 % 1009,8 hPa 0,0 l/m 0 min 2 min 0,0 UV-I 169 W/m 15,4 km/h (3 Bft)
10.05.2014 12:18 11,1 C 10,6 C 97 % 1009,6 hPa 0,0 l/m 0 min 2 min 0,0 UV-I 171 W/m 20,6 km/h (4 Bft)
10.05.2014 12:20 11,1 C 10,6 C 97 % 1009,5 hPa 0,2 l/m 0 min 2 min 0,0 UV-I 167 W/m 12,9 km/h (3 Bft)
10.05.2014 12:22 11,1 C 10,0 C 97 % 1009,5 hPa 0,0 l/m 0 min 2 min 0,0 UV-I 146 W/m 25,7 km/h (4 Bft)
10.05.2014 12:24 11,1 C 10,0 C 97 % 1009,5 hPa 0,0 l/m 0 min 2 min 0,0 UV-I 121 W/m 12,9 km/h (3 Bft)
10.05.2014 12:26 11,0 C 10,0 C 97 % 1009,5 hPa 0,0 l/m 0 min 2 min 0,0 UV-I 109 W/m 15,4 km/h (3 Bft)
10.05.2014 12:28 11,1 C 10,0 C 97 % 1009,5 hPa 0,2 l/m 0 min 2 min 0,0 UV-I 104 W/m 12,9 km/h (3 Bft)
10.05.2014 12:30 11,1 C 10,0 C 97 % 1009,2 hPa 0,0 l/m 0 min 2 min 0,0 UV-I 93 W/m 12,9 km/h (3 Bft)
10.05.2014 12:32 11,1 C 10,0 C 97 % 1009,1 hPa 0,2 l/m 0 min 2 min 0,0 UV-I 77 W/m 15,4 km/h (3 Bft)
10.05.2014 12:34 11,1 C 10,0 C 97 % 1009,2 hPa 0,2 l/m 0 min 2 min 0,0 UV-I 76 W/m 5,1 km/h (1 Bft)
10.05.2014 12:36 11,1 C 10,0 C 97 % 1009,4 hPa 0,2 l/m 0 min 2 min 0,0 UV-I 81 W/m 5,1 km/h (1 Bft)
10.05.2014 12:38 11,1 C 10,0 C 97 % 1009,4 hPa 0,0 l/m 0 min 2 min 0,0 UV-I 81 W/m 12,9 km/h (3 Bft)
10.05.2014 12:40 11,1 C 10,0 C 97 % 1009,4 hPa 0,0 l/m 0 min 2 min 0,0 UV-I 77 W/m 10,3 km/h (2 Bft)
10.05.2014 12:42 11,1 C 10,0 C 97 % 1009,4 hPa 0,0 l/m 0 min 2 min 0,0 UV-I 118 W/m 10,3 km/h (2 Bft)
10.05.2014 12:44 11,1 C 10,0 C 97 % 1009,2 hPa 0,2 l/m 0 min 2 min 0,0 UV-I 134 W/m 15,4 km/h (3 Bft)
10.05.2014 12:46 11,1 C 10,6 C 97 % 1009,2 hPa 0,0 l/m 0 min 2 min 0,0 UV-I 148 W/m 20,6 km/h (4 Bft)
10.05.2014 12:48 11,2 C 10,6 C 97 % 1009,2 hPa 0,0 l/m 0 min 2 min 0,0 UV-I 149 W/m 15,4 km/h (3 Bft)
10.05.2014 12:50 11,2 C 10,6 C 97 % 1009,3 hPa 0,0 l/m 0 min 2 min 0,0 UV-I 135 W/m 15,4 km/h (3 Bft)
10.05.2014 12:52 11,2 C 10,6 C 97 % 1009,2 hPa 0,0 l/m 0 min 2 min 0,0 UV-I 118 W/m 12,9 km/h (3 Bft)
10.05.2014 12:54 11,3 C 10,6 C 97 % 1009,3 hPa 0,0 l/m 0 min 2 min 0,0 UV-I 91 W/m 12,9 km/h (3 Bft)
10.05.2014 12:56 11,3 C 10,6 C 97 % 1009,3 hPa 0,0 l/m 0 min 2 min 0,0 UV-I 107 W/m 15,4 km/h (3 Bft)
10.05.2014 12:58 11,3 C 10,6 C 97 % 1009,2 hPa 0,2 l/m 0 min 2 min 0,0 UV-I 109 W/m 18,0 km/h (3 Bft)
10.05.2014 13:00 11,3 C 10,6 C 97 % 1009,2 hPa 0,0 l/m 0 min 2 min 0,0 UV-I 121 W/m 7,7 km/h (2 Bft)
10.05.2014 13:02 11,4 C 10,6 C 97 % 1009,2 hPa 0,0 l/m 0 min 2 min 0,0 UV-I 107 W/m 15,4 km/h (3 Bft)
10.05.2014 13:05 11,4 C 10,6 C 97 % 1009,2 hPa 0,0 l/m 0 min 2 min 0,0 UV-I 107 W/m 7,7 km/h (2 Bft)
10.05.2014 13:06 11,4 C 10,6 C 97 % 1009,2 hPa 0,0 l/m 0 min 1 min 0,0 UV-I 118 W/m 5,1 km/h (1 Bft)
10.05.2014 13:08 11,5 C 10,6 C 97 % 1009,2 hPa 0,0 l/m 0 min 2 min 0,0 UV-I 120 W/m 18,0 km/h (3 Bft)
10.05.2014 13:10 11,4 C 10,6 C 97 % 1009,1 hPa 0,0 l/m 0 min 2 min 0,0 UV-I 111 W/m 15,4 km/h (3 Bft)
10.05.2014 13:12 11,4 C 10,6 C 97 % 1009,0 hPa 0,0 l/m 0 min 2 min 0,0 UV-I 107 W/m 5,1 km/h (1 Bft)
10.05.2014 13:14 11,5 C 10,6 C 97 % 1009,0 hPa 0,0 l/m 0 min 2 min 0,0 UV-I 88 W/m 7,7 km/h (2 Bft)
10.05.2014 13:16 11,6 C 10,6 C 98 % 1009,0 hPa 0,2 l/m 0 min 2 min 0,0 UV-I 74 W/m 10,3 km/h (2 Bft)
10.05.2014 13:18 11,5 C 10,6 C 98 % 1008,9 hPa 0,0 l/m 0 min 2 min 0,0 UV-I 90 W/m 7,7 km/h (2 Bft)
10.05.2014 13:20 11,5 C 10,6 C 98 % 1008,8 hPa 0,0 l/m 0 min 2 min 0,0 UV-I 88 W/m 12,9 km/h (3 Bft)
10.05.2014 13:22 11,6 C 10,6 C 98 % 1008,6 hPa 0,0 l/m 0 min 2 min 0,0 UV-I 88 W/m 10,3 km/h (2 Bft)
10.05.2014 13:24 11,5 C 10,6 C 98 % 1008,5 hPa 0,2 l/m 0 min 2 min 0,0 UV-I 84 W/m 18,0 km/h (3 Bft)
10.05.2014 13:26 11,5 C 10,6 C 98 % 1008,3 hPa 0,0 l/m 0 min 2 min 0,0 UV-I 83 W/m 20,6 km/h (4 Bft)
10.05.2014 13:28 11,5 C 10,6 C 97 % 1008,3 hPa 0,0 l/m 0 min 2 min 0,0 UV-I 86 W/m 18,0 km/h (3 Bft)
10.05.2014 13:30 11,5 C 10,6 C 97 % 1008,3 hPa 0,0 l/m 0 min 2 min 0,0 UV-I 90 W/m 18,0 km/h (3 Bft)
10.05.2014 13:32 11,5 C 10,6 C 97 % 1008,3 hPa 0,0 l/m 0 min 2 min 0,0 UV-I 95 W/m 15,4 km/h (3 Bft)
10.05.2014 13:34 11,6 C 10,6 C 97 % 1008,3 hPa 0,0 l/m 0 min 2 min 0,0 UV-I 100 W/m 10,3 km/h (2 Bft)
10.05.2014 13:36 11,6 C 10,6 C 98 % 1008,3 hPa 0,2 l/m 0 min 2 min 0,0 UV-I 98 W/m 5,1 km/h (1 Bft)
10.05.2014 13:38 11,6 C 10,6 C 98 % 1008,3 hPa 0,0 l/m 0 min 2 min 0,0 UV-I 93 W/m 10,3 km/h (2 Bft)
10.05.2014 13:40 11,7 C 10,6 C 98 % 1008,2 hPa 0,2 l/m 0 min 2 min 0,0 UV-I 93 W/m 2,6 km/h (1 Bft)
10.05.2014 13:42 11,7 C 10,6 C 98 % 1008,3 hPa 0,0 l/m 0 min 2 min 0,0 UV-I 84 W/m 10,3 km/h (2 Bft)
10.05.2014 13:44 11,7 C 10,6 C 98 % 1008,4 hPa 0,2 l/m 0 min 2 min 0,0 UV-I 77 W/m 10,3 km/h (2 Bft)
10.05.2014 13:46 11,7 C 10,6 C 98 % 1008,5 hPa 0,0 l/m 0 min 2 min 0,0 UV-I 74 W/m 5,1 km/h (1 Bft)
10.05.2014 13:48 11,7 C 10,6 C 98 % 1008,5 hPa 0,2 l/m 0 min 2 min 0,0 UV-I 54 W/m 0,0 km/h (0 Bft)
10.05.2014 13:50 11,8 C 10,6 C 98 % 1008,6 hPa 0,0 l/m 0 min 2 min 0,0 UV-I 54 W/m 0,0 km/h (0 Bft)
10.05.2014 13:52 11,8 C 10,6 C 98 % 1008,6 hPa 0,0 l/m 0 min 2 min 0,0 UV-I 72 W/m 10,3 km/h (2 Bft)
10.05.2014 13:54 11,7 C 10,6 C 98 % 1008,4 hPa 0,2 l/m 0 min 2 min 0,0 UV-I 88 W/m 5,1 km/h (1 Bft)
10.05.2014 13:56 11,8 C 10,6 C 98 % 1008,3 hPa 0,0 l/m 0 min 2 min 0,0 UV-I 93 W/m 7,7 km/h (2 Bft)
10.05.2014 13:58 11,8 C 10,6 C 98 % 1008,3 hPa 0,2 l/m 0 min 2 min 0,0 UV-I 105 W/m 15,4 km/h (3 Bft)
10.05.2014 14:00 11,8 C 10,6 C 98 % 1008,2 hPa 0,0 l/m 0 min 2 min 0,0 UV-I 111 W/m 10,3 km/h (2 Bft)
10.05.2014 14:02 11,8 C 11,1 C 98 % 1008,2 hPa 0,0 l/m 0 min 2 min 0,0 UV-I 120 W/m 0,0 km/h (0 Bft)
10.05.2014 14:05 11,9 C 11,1 C 98 % 1008,1 hPa 0,2 l/m 0 min 2 min 0,0 UV-I 151 W/m 10,3 km/h (2 Bft)
10.05.2014 14:06 11,9 C 11,1 C 98 % 1008,1 hPa 0,0 l/m 0 min 1 min 0,0 UV-I 167 W/m 7,7 km/h (2 Bft)
10.05.2014 14:08 11,9 C 11,1 C 98 % 1007,9 hPa 0,0 l/m 0 min 2 min 0,5 UV-I 186 W/m 12,9 km/h (3 Bft)
10.05.2014 14:10 12,1 C 11,1 C 98 % 1007,9 hPa 0,0 l/m 0 min 2 min 0,0 UV-I 181 W/m 10,3 km/h (2 Bft)
10.05.2014 14:12 12,2 C 11,7 C 98 % 1007,9 hPa 0,0 l/m 0 min 2 min 0,5 UV-I 183 W/m 10,3 km/h (2 Bft)
10.05.2014 14:14 12,2 C 11,7 C 98 % 1007,8 hPa 0,0 l/m 0 min 2 min 0,6 UV-I 200 W/m 12,9 km/h (3 Bft)
10.05.2014 14:16 12,3 C 11,7 C 98 % 1007,7 hPa 0,0 l/m 0 min 0 min 0,5 UV-I 185 W/m 23,2 km/h (4 Bft)
10.05.2014 14:18 12,3 C 11,7 C 98 % 1007,7 hPa 0,0 l/m 0 min 2 min 0,0 UV-I 172 W/m 15,4 km/h (3 Bft)
10.05.2014 14:20 12,3 C 11,7 C 98 % 1007,6 hPa 0,0 l/m 0 min 2 min 0,0 UV-I 163 W/m 12,9 km/h (3 Bft)
10.05.2014 14:22 12,4 C 11,7 C 98 % 1007,6 hPa 0,0 l/m 0 min 2 min 0,0 UV-I 135 W/m 18,0 km/h (3 Bft)
10.05.2014 14:24 12,3 C 11,1 C 98 % 1007,5 hPa 0,0 l/m 0 min 2 min 0,0 UV-I 130 W/m 10,3 km/h (2 Bft)
10.05.2014 14:26 12,3 C 11,1 C 98 % 1007,4 hPa 0,0 l/m 0 min 2 min 0,0 UV-I 148 W/m 28,3 km/h (4 Bft)
10.05.2014 14:28 12,3 C 11,1 C 98 % 1007,5 hPa 0,0 l/m 0 min 2 min 0,0 UV-I 171 W/m 18,0 km/h (3 Bft)
10.05.2014 14:30 12,3 C 11,1 C 98 % 1007,4 hPa 0,0 l/m 0 min 2 min 0,0 UV-I 178 W/m 12,9 km/h (3 Bft)
10.05.2014 14:32 12,3 C 11,7 C 97 % 1007,3 hPa 0,0 l/m 0 min 2 min 0,6 UV-I 204 W/m 12,9 km/h (3 Bft)
10.05.2014 14:34 12,4 C 11,7 C 97 % 1007,3 hPa 0,0 l/m 0 min 2 min 0,6 UV-I 211 W/m 12,9 km/h (3 Bft)
10.05.2014 14:36 12,4 C 11,7 C 97 % 1007,1 hPa 0,2 l/m 0 min 2 min 0,6 UV-I 206 W/m 20,6 km/h (4 Bft)
10.05.2014 14:38 12,4 C 11,7 C 97 % 1007,1 hPa 0,0 l/m 0 min 2 min 0,5 UV-I 193 W/m 25,7 km/h (4 Bft)
10.05.2014 14:40 12,4 C 11,7 C 97 % 1007,1 hPa 0,0 l/m 0 min 2 min 0,0 UV-I 181 W/m 12,9 km/h (3 Bft)
10.05.2014 14:42 12,4 C 11,1 C 97 % 1007,0 hPa 0,0 l/m 0 min 2 min 0,0 UV-I 183 W/m 18,0 km/h (3 Bft)
10.05.2014 14:44 12,4 C 11,1 C 97 % 1007,0 hPa 0,0 l/m 0 min 2 min 0,0 UV-I 183 W/m 15,4 km/h (3 Bft)
10.05.2014 14:46 12,4 C 11,7 C 97 % 1006,9 hPa 0,0 l/m 0 min 0 min 0,5 UV-I 200 W/m 12,9 km/h (3 Bft)
10.05.2014 14:48 12,4 C 11,7 C 97 % 1006,8 hPa 0,0 l/m 0 min 2 min 0,6 UV-I 216 W/m 18,0 km/h (3 Bft)
10.05.2014 14:50 12,5 C 11,7 C 97 % 1006,8 hPa 0,0 l/m 0 min 0 min 0,7 UV-I 230 W/m 23,2 km/h (4 Bft)
10.05.2014 14:52 12,6 C 11,7 C 97 % 1006,7 hPa 0,0 l/m 0 min 0 min 0,9 UV-I 260 W/m 10,3 km/h (2 Bft)
10.05.2014 14:54 12,6 C 11,7 C 96 % 1006,7 hPa 0,0 l/m 0 min 0 min 1,1 UV-I 290 W/m 18,0 km/h (3 Bft)
10.05.2014 14:56 12,7 C 11,7 C 96 % 1006,8 hPa 0,0 l/m 0 min 0 min 1,2 UV-I 309 W/m 20,6 km/h (4 Bft)
10.05.2014 14:58 12,7 C 12,2 C 96 % 1006,8 hPa 0,0 l/m 0 min 0 min 1,4 UV-I 334 W/m 20,6 km/h (4 Bft)
10.05.2014 15:00 12,8 C 12,2 C 96 % 1006,9 hPa 0,0 l/m 0 min 0 min 1,3 UV-I 330 W/m 12,9 km/h (3 Bft)
10.05.2014 15:02 12,9 C 12,2 C 96 % 1006,8 hPa 0,0 l/m 0 min 0 min 1,2 UV-I 313 W/m 20,6 km/h (4 Bft)
10.05.2014 15:05 13,0 C 12,2 C 96 % 1006,8 hPa 0,0 l/m 0 min 0 min 1,0 UV-I 283 W/m 12,9 km/h (3 Bft)
10.05.2014 15:06 13,0 C 12,2 C 95 % 1006,8 hPa 0,0 l/m 0 min 0 min 1,0 UV-I 283 W/m 15,4 km/h (3 Bft)
10.05.2014 15:08 13,1 C 12,2 C 95 % 1006,8 hPa 0,0 l/m 0 min 0 min 1,0 UV-I 299 W/m 10,3 km/h (2 Bft)
10.05.2014 15:10 13,1 C 12,2 C 95 % 1006,8 hPa 0,0 l/m 0 min 0 min 0,5 UV-I 207 W/m 12,9 km/h (3 Bft)
10.05.2014 15:12 13,2 C 12,2 C 94 % 1006,7 hPa 0,0 l/m 0 min 0 min 0,6 UV-I 218 W/m 20,6 km/h (4 Bft)
10.05.2014 15:14 13,2 C 12,2 C 94 % 1006,7 hPa 0,0 l/m 0 min 0 min 0,7 UV-I 248 W/m 12,9 km/h (3 Bft)
10.05.2014 15:16 13,1 C 12,2 C 94 % 1006,7 hPa 0,0 l/m 0 min 0 min 0,6 UV-I 218 W/m 28,3 km/h (4 Bft)
10.05.2014 15:18 13,2 C 12,2 C 93 % 1006,7 hPa 0,0 l/m 0 min 0 min 0,5 UV-I 211 W/m 5,1 km/h (1 Bft)
10.05.2014 15:20 13,2 C 12,2 C 93 % 1006,6 hPa 0,0 l/m 0 min 0 min 0,6 UV-I 216 W/m 10,3 km/h (2 Bft)
10.05.2014 15:22 13,2 C 12,2 C 93 % 1006,5 hPa 0,0 l/m 0 min 0 min 0,6 UV-I 232 W/m 25,7 km/h (4 Bft)
10.05.2014 15:24 13,2 C 12,2 C 93 % 1006,5 hPa 0,0 l/m 0 min 0 min 0,5 UV-I 220 W/m 20,6 km/h (4 Bft)
10.05.2014 15:26 13,2 C 12,2 C 93 % 1006,5 hPa 0,0 l/m 0 min 0 min 0,0 UV-I 174 W/m 12,9 km/h (3 Bft)
10.05.2014 15:28 13,2 C 12,2 C 92 % 1006,5 hPa 0,0 l/m 0 min 0 min 0,0 UV-I 178 W/m 23,2 km/h (4 Bft)
10.05.2014 15:30 13,2 C 12,2 C 92 % 1006,5 hPa 0,0 l/m 0 min 0 min 0,5 UV-I 220 W/m 20,6 km/h (4 Bft)
10.05.2014 15:32 13,2 C 12,2 C 92 % 1006,4 hPa 0,0 l/m 0 min 0 min 0,0 UV-I 169 W/m 7,7 km/h (2 Bft)
10.05.2014 15:34 13,2 C 12,2 C 92 % 1006,5 hPa 0,0 l/m 0 min 0 min 0,0 UV-I 190 W/m 28,3 km/h (4 Bft)
10.05.2014 15:36 13,3 C 12,2 C 91 % 1006,5 hPa 0,0 l/m 0 min 0 min 0,6 UV-I 237 W/m 23,2 km/h (4 Bft)
10.05.2014 15:38 13,3 C 12,2 C 91 % 1006,5 hPa 0,0 l/m 0 min 0 min 0,6 UV-I 232 W/m 12,9 km/h (3 Bft)
10.05.2014 15:40 13,4 C 12,2 C 91 % 1006,4 hPa 0,0 l/m 0 min 0 min 0,0 UV-I 153 W/m 12,9 km/h (3 Bft)
10.05.2014 15:42 13,4 C 12,2 C 91 % 1006,3 hPa 0,0 l/m 0 min 0 min 0,0 UV-I 137 W/m 18,0 km/h (3 Bft)
10.05.2014 15:44 13,4 C 12,2 C 90 % 1006,3 hPa 0,0 l/m 0 min 0 min 0,0 UV-I 130 W/m 7,7 km/h (2 Bft)
10.05.2014 15:46 13,4 C 12,2 C 91 % 1006,2 hPa 0,0 l/m 0 min 0 min 0,0 UV-I 113 W/m 12,9 km/h (3 Bft)
10.05.2014 15:48 13,4 C 12,2 C 91 % 1006,2 hPa 0,0 l/m 0 min 0 min 0,0 UV-I 100 W/m 15,4 km/h (3 Bft)
10.05.2014 15:50 13,4 C 12,2 C 90 % 1006,1 hPa 0,0 l/m 0 min 0 min 0,0 UV-I 102 W/m 15,4 km/h (3 Bft)
10.05.2014 15:52 13,4 C 11,7 C 90 % 1006,1 hPa 0,0 l/m 0 min 0 min 0,0 UV-I 105 W/m 7,7 km/h (2 Bft)
10.05.2014 15:54 13,3 C 11,7 C 90 % 1006,1 hPa 0,0 l/m 0 min 0 min 0,0 UV-I 93 W/m 18,0 km/h (3 Bft)
10.05.2014 15:56 13,3 C 11,7 C 90 % 1006,1 hPa 0,0 l/m 0 min 0 min 0,0 UV-I 74 W/m 12,9 km/h (3 Bft)
10.05.2014 15:58 13,3 C 11,7 C 90 % 1006,0 hPa 0,0 l/m 0 min 0 min 0,0 UV-I 77 W/m 15,4 km/h (3 Bft)
10.05.2014 16:00 13,3 C 11,7 C 90 % 1005,9 hPa 0,0 l/m 0 min 0 min 0,0 UV-I 65 W/m 20,6 km/h (4 Bft)
10.05.2014 16:02 13,3 C 11,7 C 90 % 1005,9 hPa 0,0 l/m 0 min 0 min 0,0 UV-I 67 W/m 12,9 km/h (3 Bft)
10.05.2014 16:05 13,3 C 11,7 C 90 % 1005,9 hPa 0,0 l/m 0 min 0 min 0,0 UV-I 60 W/m 10,3 km/h (2 Bft)
10.05.2014 16:06 13,3 C 11,7 C 90 % 1005,9 hPa 0,0 l/m 0 min 0 min 0,0 UV-I 65 W/m 12,9 km/h (3 Bft)
10.05.2014 16:08 13,3 C 11,7 C 90 % 1005,9 hPa 0,0 l/m 0 min 0 min 0,0 UV-I 69 W/m 10,3 km/h (2 Bft)
10.05.2014 16:10 13,3 C 11,7 C 90 % 1005,9 hPa 0,0 l/m 0 min 0 min 0,0 UV-I 56 W/m 15,4 km/h (3 Bft)
10.05.2014 16:12 13,3 C 11,7 C 90 % 1006,0 hPa 0,0 l/m 0 min 0 min 0,0 UV-I 53 W/m 20,6 km/h (4 Bft)
10.05.2014 16:14 13,3 C 11,7 C 90 % 1005,9 hPa 0,0 l/m 0 min 0 min 0,0 UV-I 58 W/m 7,7 km/h (2 Bft)
10.05.2014 16:16 13,3 C 11,7 C 90 % 1005,8 hPa 0,0 l/m 0 min 0 min 0,0 UV-I 56 W/m 18,0 km/h (3 Bft)
10.05.2014 16:18 13,3 C 11,7 C 90 % 1005,8 hPa 0,0 l/m 0 min 0 min 0,0 UV-I 54 W/m 5,1 km/h (1 Bft)
10.05.2014 16:20 13,3 C 11,7 C 90 % 1005,9 hPa 0,0 l/m 0 min 0 min 0,0 UV-I 53 W/m 18,0 km/h (3 Bft)
10.05.2014 16:22 13,3 C 11,7 C 90 % 1005,8 hPa 0,0 l/m 0 min 0 min 0,0 UV-I 51 W/m 15,4 km/h (3 Bft)
10.05.2014 16:24 13,3 C 11,7 C 90 % 1005,8 hPa 0,0 l/m 0 min 0 min 0,0 UV-I 51 W/m 38,6 km/h (5 Bft)
10.05.2014 16:26 13,3 C 11,7 C 90 % 1006,1 hPa 0,0 l/m 0 min 2 min 0,0 UV-I 46 W/m 30,9 km/h (5 Bft)
10.05.2014 16:28 13,4 C 11,1 C 90 % 1006,1 hPa 0,0 l/m 0 min 2 min 0,0 UV-I 51 W/m 41,2 km/h (6 Bft)
10.05.2014 16:30 13,4 C 11,1 C 90 % 1006,0 hPa 0,0 l/m 0 min 2 min 0,0 UV-I 70 W/m 20,6 km/h (4 Bft)
10.05.2014 16:32 13,3 C 11,1 C 90 % 1005,9 hPa 0,0 l/m 0 min 2 min 0,0 UV-I 93 W/m 23,2 km/h (4 Bft)
10.05.2014 16:34 13,3 C 11,1 C 90 % 1006,0 hPa 0,0 l/m 0 min 2 min 0,0 UV-I 95 W/m 28,3 km/h (4 Bft)
10.05.2014 16:36 13,2 C 11,1 C 90 % 1005,9 hPa 0,0 l/m 0 min 2 min 0,0 UV-I 105 W/m 18,0 km/h (3 Bft)
10.05.2014 16:38 13,1 C 11,1 C 91 % 1005,8 hPa 0,0 l/m 0 min 2 min 0,0 UV-I 141 W/m 23,2 km/h (4 Bft)
10.05.2014 16:40 13,0 C 11,1 C 92 % 1005,7 hPa 0,0 l/m 0 min 2 min 0,0 UV-I 135 W/m 20,6 km/h (4 Bft)
10.05.2014 16:42 12,9 C 11,7 C 92 % 1005,7 hPa 0,0 l/m 0 min 2 min 0,0 UV-I 120 W/m 15,4 km/h (3 Bft)
10.05.2014 16:44 12,9 C 11,1 C 92 % 1005,6 hPa 0,0 l/m 0 min 2 min 0,0 UV-I 90 W/m 18,0 km/h (3 Bft)
10.05.2014 16:46 12,8 C 11,1 C 93 % 1005,7 hPa 0,2 l/m 0 min 2 min 0,0 UV-I 88 W/m 20,6 km/h (4 Bft)
10.05.2014 16:48 12,8 C 11,1 C 93 % 1005,6 hPa 0,0 l/m 0 min 2 min 0,0 UV-I 81 W/m 18,0 km/h (3 Bft)
10.05.2014 16:50 12,7 C 11,1 C 94 % 1005,4 hPa 0,0 l/m 0 min 2 min 0,0 UV-I 79 W/m 12,9 km/h (3 Bft)
10.05.2014 16:52 12,7 C 11,1 C 94 % 1005,5 hPa 0,0 l/m 0 min 2 min 0,0 UV-I 98 W/m 20,6 km/h (4 Bft)
10.05.2014 16:54 12,7 C 11,1 C 94 % 1005,4 hPa 0,0 l/m 0 min 2 min 0,0 UV-I 113 W/m 20,6 km/h (4 Bft)
10.05.2014 16:56 12,6 C 11,1 C 94 % 1005,2 hPa 0,0 l/m 0 min 2 min 0,0 UV-I 104 W/m 12,9 km/h (3 Bft)
10.05.2014 16:58 12,6 C 11,1 C 95 % 1005,0 hPa 0,0 l/m 0 min 2 min 0,0 UV-I 97 W/m 18,0 km/h (3 Bft)
10.05.2014 17:00 12,6 C 11,1 C 95 % 1005,1 hPa 0,2 l/m 0 min 2 min 0,0 UV-I 88 W/m 25,7 km/h (4 Bft)
10.05.2014 17:02 12,6 C 11,1 C 95 % 1005,3 hPa 0,0 l/m 0 min 2 min 0,0 UV-I 88 W/m 18,0 km/h (3 Bft)
10.05.2014 17:05 12,6 C 11,1 C 95 % 1005,2 hPa 0,0 l/m 0 min 2 min 0,0 UV-I 72 W/m 12,9 km/h (3 Bft)
10.05.2014 17:06 12,6 C 11,1 C 95 % 1005,2 hPa 0,0 l/m 0 min 1 min 0,0 UV-I 69 W/m 7,7 km/h (2 Bft)
10.05.2014 17:08 12,6 C 11,1 C 95 % 1005,2 hPa 0,0 l/m 0 min 2 min 0,0 UV-I 69 W/m 12,9 km/h (3 Bft)
10.05.2014 17:10 12,6 C 11,1 C 95 % 1005,1 hPa 0,0 l/m 0 min 2 min 0,0 UV-I 81 W/m 12,9 km/h (3 Bft)
10.05.2014 17:12 12,6 C 11,1 C 95 % 1005,1 hPa 0,0 l/m 0 min 2 min 0,0 UV-I 102 W/m 20,6 km/h (4 Bft)
10.05.2014 17:14 12,6 C 11,1 C 95 % 1005,0 hPa 0,0 l/m 0 min 2 min 0,0 UV-I 134 W/m 12,9 km/h (3 Bft)
10.05.2014 17:16 12,5 C 11,1 C 95 % 1005,0 hPa 0,0 l/m 0 min 2 min 0,0 UV-I 142 W/m 18,0 km/h (3 Bft)
10.05.2014 17:18 12,6 C 11,1 C 95 % 1005,0 hPa 0,0 l/m 0 min 2 min 0,0 UV-I 132 W/m 25,7 km/h (4 Bft)
10.05.2014 17:20 12,6 C 11,1 C 95 % 1005,0 hPa 0,0 l/m 0 min 2 min 0,0 UV-I 123 W/m 12,9 km/h (3 Bft)
10.05.2014 17:22 12,6 C 11,1 C 95 % 1005,0 hPa 0,0 l/m 0 min 0 min 0,0 UV-I 105 W/m 20,6 km/h (4 Bft)
10.05.2014 17:24 12,6 C 11,1 C 95 % 1004,9 hPa 0,0 l/m 0 min 0 min 0,0 UV-I 109 W/m 18,0 km/h (3 Bft)
10.05.2014 17:26 12,6 C 11,1 C 95 % 1004,9 hPa 0,0 l/m 0 min 0 min 0,0 UV-I 128 W/m 15,4 km/h (3 Bft)
10.05.2014 17:28 12,6 C 11,7 C 95 % 1004,8 hPa 0,0 l/m 0 min 0 min 0,0 UV-I 135 W/m 15,4 km/h (3 Bft)
10.05.2014 17:30 12,7 C 11,7 C 95 % 1004,8 hPa 0,0 l/m 0 min 0 min 0,0 UV-I 139 W/m 18,0 km/h (3 Bft)
10.05.2014 17:32 12,7 C 11,7 C 95 % 1004,8 hPa 0,0 l/m 0 min 0 min 0,0 UV-I 156 W/m 18,0 km/h (3 Bft)
10.05.2014 17:34 12,7 C 11,7 C 95 % 1004,8 hPa 0,0 l/m 0 min 2 min 0,0 UV-I 125 W/m 10,3 km/h (2 Bft)
10.05.2014 17:36 12,7 C 11,7 C 95 % 1004,8 hPa 0,0 l/m 0 min 0 min 0,0 UV-I 105 W/m 15,4 km/h (3 Bft)
10.05.2014 17:38 12,7 C 11,1 C 95 % 1004,8 hPa 0,0 l/m 0 min 0 min 0,0 UV-I 123 W/m 20,6 km/h (4 Bft)
10.05.2014 17:40 12,8 C 11,7 C 95 % 1004,9 hPa 0,0 l/m 0 min 0 min 0,0 UV-I 156 W/m 20,6 km/h (4 Bft)
10.05.2014 17:42 12,8 C 11,7 C 95 % 1004,7 hPa 0,0 l/m 0 min 0 min 0,0 UV-I 146 W/m 18,0 km/h (3 Bft)
10.05.2014 17:44 12,9 C 11,7 C 95 % 1004,6 hPa 0,0 l/m 0 min 0 min 0,0 UV-I 155 W/m 20,6 km/h (4 Bft)
10.05.2014 17:46 12,9 C 11,7 C 95 % 1004,7 hPa 0,0 l/m 0 min 0 min 0,0 UV-I 192 W/m 23,2 km/h (4 Bft)
10.05.2014 17:48 12,9 C 11,7 C 95 % 1004,7 hPa 0,0 l/m 0 min 0 min 0,0 UV-I 139 W/m 23,2 km/h (4 Bft)
10.05.2014 17:50 12,9 C 11,7 C 95 % 1004,6 hPa 0,0 l/m 0 min 0 min 0,0 UV-I 125 W/m 12,9 km/h (3 Bft)
10.05.2014 17:52 13,0 C 11,7 C 95 % 1004,6 hPa 0,0 l/m 0 min 0 min 0,0 UV-I 123 W/m 23,2 km/h (4 Bft)
10.05.2014 17:54 13,0 C 11,7 C 95 % 1004,5 hPa 0,0 l/m 0 min 0 min 0,0 UV-I 91 W/m 12,9 km/h (3 Bft)
10.05.2014 17:56 13,0 C 11,7 C 95 % 1004,4 hPa 0,0 l/m 0 min 0 min 0,0 UV-I 79 W/m 15,4 km/h (3 Bft)
10.05.2014 17:58 13,0 C 11,7 C 95 % 1004,4 hPa 0,0 l/m 0 min 0 min 0,0 UV-I 81 W/m 12,9 km/h (3 Bft)
10.05.2014 18:00 13,0 C 11,7 C 95 % 1004,3 hPa 0,0 l/m 0 min 0 min 0,0 UV-I 88 W/m 12,9 km/h (3 Bft)
10.05.2014 18:02 13,0 C 11,7 C 95 % 1004,3 hPa 0,0 l/m 0 min 0 min 0,0 UV-I 83 W/m 15,4 km/h (3 Bft)
10.05.2014 18:05 12,9 C 11,7 C 95 % 1004,1 hPa 0,0 l/m 0 min 0 min 0,0 UV-I 98 W/m 12,9 km/h (3 Bft)
10.05.2014 18:06 12,9 C 11,7 C 95 % 1004,1 hPa 0,0 l/m 0 min 0 min 0,0 UV-I 107 W/m 18,0 km/h (3 Bft)
10.05.2014 18:08 12,9 C 11,7 C 95 % 1004,1 hPa 0,0 l/m 0 min 0 min 0,0 UV-I 127 W/m 15,4 km/h (3 Bft)
10.05.2014 18:10 13,0 C 11,7 C 95 % 1004,2 hPa 0,0 l/m 0 min 0 min 0,0 UV-I 118 W/m 20,6 km/h (4 Bft)
10.05.2014 18:12 13,0 C 11,7 C 95 % 1004,0 hPa 0,0 l/m 0 min 0 min 0,0 UV-I 111 W/m 18,0 km/h (3 Bft)
10.05.2014 18:14 13,1 C 11,7 C 95 % 1004,0 hPa 0,0 l/m 0 min 0 min 0,0 UV-I 127 W/m 10,3 km/h (2 Bft)
10.05.2014 18:16 13,1 C 11,7 C 94 % 1004,0 hPa 0,0 l/m 0 min 0 min 0,0 UV-I 127 W/m 15,4 km/h (3 Bft)
10.05.2014 18:18 13,2 C 11,7 C 94 % 1004,0 hPa 0,0 l/m 0 min 0 min 0,0 UV-I 123 W/m 12,9 km/h (3 Bft)
10.05.2014 18:20 13,2 C 11,7 C 94 % 1004,0 hPa 0,0 l/m 0 min 0 min 0,0 UV-I 128 W/m 18,0 km/h (3 Bft)
10.05.2014 18:22 13,2 C 11,7 C 94 % 1004,0 hPa 0,0 l/m 0 min 0 min 0,0 UV-I 128 W/m 18,0 km/h (3 Bft)
10.05.2014 18:24 13,3 C 11,7 C 94 % 1004,0 hPa 0,0 l/m 0 min 0 min 0,0 UV-I 107 W/m 18,0 km/h (3 Bft)
10.05.2014 18:26 13,3 C 11,7 C 94 % 1004,0 hPa 0,0 l/m 0 min 0 min 0,0 UV-I 120 W/m 15,4 km/h (3 Bft)
10.05.2014 18:28 13,3 C 11,7 C 94 % 1003,9 hPa 0,0 l/m 0 min 0 min 0,0 UV-I 93 W/m 20,6 km/h (4 Bft)
10.05.2014 18:30 13,3 C 11,7 C 94 % 1004,0 hPa 0,0 l/m 0 min 0 min 0,0 UV-I 74 W/m 12,9 km/h (3 Bft)
10.05.2014 18:32 13,3 C 11,7 C 93 % 1004,0 hPa 0,0 l/m 0 min 0 min 0,0 UV-I 69 W/m 15,4 km/h (3 Bft)
10.05.2014 18:34 13,3 C 11,7 C 93 % 1003,8 hPa 0,0 l/m 0 min 0 min 0,0 UV-I 47 W/m 12,9 km/h (3 Bft)
10.05.2014 18:36 13,3 C 11,7 C 93 % 1003,7 hPa 0,0 l/m 0 min 0 min 0,0 UV-I 53 W/m 12,9 km/h (3 Bft)
10.05.2014 18:38 13,3 C 11,7 C 93 % 1003,7 hPa 0,0 l/m 0 min 0 min 0,0 UV-I 65 W/m 7,7 km/h (2 Bft)
10.05.2014 18:40 13,3 C 11,7 C 93 % 1003,7 hPa 0,0 l/m 0 min 2 min 0,0 UV-I 77 W/m 18,0 km/h (3 Bft)
10.05.2014 18:42 13,3 C 11,7 C 93 % 1003,8 hPa 0,0 l/m 0 min 0 min 0,0 UV-I 53 W/m 15,4 km/h (3 Bft)
10.05.2014 18:44 13,3 C 11,7 C 93 % 1003,7 hPa 0,0 l/m 0 min 0 min 0,0 UV-I 37 W/m 23,2 km/h (4 Bft)
10.05.2014 18:46 13,3 C 11,7 C 93 % 1003,7 hPa 0,0 l/m 0 min 0 min 0,0 UV-I 53 W/m 33,5 km/h (5 Bft)
10.05.2014 18:48 13,3 C 11,1 C 93 % 1003,7 hPa 0,0 l/m 0 min 0 min 0,0 UV-I 53 W/m 18,0 km/h (3 Bft)
10.05.2014 18:50 13,3 C 11,7 C 93 % 1003,6 hPa 0,0 l/m 0 min 0 min 0,0 UV-I 44 W/m 15,4 km/h (3 Bft)
10.05.2014 18:52 13,3 C 11,7 C 93 % 1003,6 hPa 0,0 l/m 0 min 0 min 0,0 UV-I 47 W/m 15,4 km/h (3 Bft)
10.05.2014 18:54 13,3 C 11,7 C 93 % 1003,4 hPa 0,0 l/m 0 min 0 min 0,0 UV-I 62 W/m 10,3 km/h (2 Bft)
10.05.2014 18:56 13,4 C 11,7 C 95 % 1003,5 hPa 0,0 l/m 0 min 2 min 0,0 UV-I 69 W/m 20,6 km/h (4 Bft)
10.05.2014 18:58 13,4 C 11,7 C 95 % 1003,4 hPa 0,0 l/m 0 min 2 min 0,0 UV-I 40 W/m 7,7 km/h (2 Bft)
10.05.2014 19:00 13,4 C 11,7 C 92 % 1003,4 hPa 0,0 l/m 0 min 0 min 0,0 UV-I 47 W/m 20,6 km/h (4 Bft)
10.05.2014 19:02 13,4 C 11,7 C 92 % 1003,4 hPa 0,0 l/m 0 min 0 min 0,0 UV-I 60 W/m 10,3 km/h (2 Bft)
10.05.2014 19:05 13,4 C 11,7 C 92 % 1003,4 hPa 0,0 l/m 0 min 2 min 0,0 UV-I 100 W/m 23,2 km/h (4 Bft)
10.05.2014 19:06 13,4 C 11,7 C 92 % 1003,4 hPa 0,0 l/m 0 min 1 min 0,0 UV-I 97 W/m 18,0 km/h (3 Bft)
10.05.2014 19:08 13,4 C 11,7 C 92 % 1003,4 hPa 0,0 l/m 0 min 0 min 0,0 UV-I 67 W/m 20,6 km/h (4 Bft)
10.05.2014 19:10 13,4 C 11,7 C 92 % 1003,4 hPa 0,0 l/m 0 min 0 min 0,0 UV-I 77 W/m 18,0 km/h (3 Bft)
10.05.2014 19:12 13,5 C 11,7 C 92 % 1003,4 hPa 0,0 l/m 0 min 0 min 0,0 UV-I 104 W/m 10,3 km/h (2 Bft)
10.05.2014 19:14 13,5 C 11,7 C 92 % 1003,4 hPa 0,0 l/m 0 min 0 min 0,0 UV-I 93 W/m 5,1 km/h (1 Bft)
10.05.2014 19:16 13,5 C 11,7 C 92 % 1003,4 hPa 0,0 l/m 0 min 0 min 0,0 UV-I 104 W/m 10,3 km/h (2 Bft)
10.05.2014 19:18 13,6 C 11,7 C 92 % 1003,3 hPa 0,0 l/m 0 min 0 min 0,0 UV-I 104 W/m 18,0 km/h (3 Bft)
10.05.2014 19:20 13,6 C 11,7 C 92 % 1003,3 hPa 0,0 l/m 0 min 0 min 0,0 UV-I 88 W/m 7,7 km/h (2 Bft)
10.05.2014 19:22 13,6 C 11,7 C 92 % 1003,3 hPa 0,0 l/m 0 min 0 min 0,0 UV-I 107 W/m 18,0 km/h (3 Bft)
10.05.2014 19:24 13,6 C 11,7 C 92 % 1003,2 hPa 0,0 l/m 2 min 0 min 0,0 UV-I 146 W/m 12,9 km/h (3 Bft)
10.05.2014 19:26 13,7 C 12,2 C 92 % 1003,0 hPa 0,0 l/m 2 min 0 min 0,0 UV-I 139 W/m 12,9 km/h (3 Bft)
10.05.2014 19:28 13,7 C 12,2 C 92 % 1002,8 hPa 0,0 l/m 2 min 0 min 0,0 UV-I 151 W/m 18,0 km/h (3 Bft)
10.05.2014 19:30 13,7 C 12,2 C 92 % 1002,8 hPa 0,0 l/m 2 min 0 min 0,0 UV-I 139 W/m 15,4 km/h (3 Bft)
10.05.2014 19:32 13,7 C 11,7 C 92 % 1002,9 hPa 0,0 l/m 0 min 0 min 0,0 UV-I 91 W/m 12,9 km/h (3 Bft)
10.05.2014 19:34 13,7 C 11,7 C 92 % 1003,0 hPa 0,0 l/m 0 min 0 min 0,0 UV-I 69 W/m 10,3 km/h (2 Bft)
10.05.2014 19:36 13,7 C 11,7 C 92 % 1003,0 hPa 0,0 l/m 0 min 0 min 0,0 UV-I 65 W/m 18,0 km/h (3 Bft)
10.05.2014 19:38 13,7 C 11,7 C 92 % 1003,0 hPa 0,0 l/m 0 min 0 min 0,0 UV-I 60 W/m 18,0 km/h (3 Bft)
10.05.2014 19:40 13,7 C 11,7 C 92 % 1003,0 hPa 0,0 l/m 0 min 0 min 0,0 UV-I 33 W/m 25,7 km/h (4 Bft)
10.05.2014 19:42 13,7 C 11,7 C 92 % 1003,0 hPa 0,0 l/m 0 min 0 min 0,0 UV-I 35 W/m 25,7 km/h (4 Bft)
10.05.2014 19:44 13,7 C 11,7 C 92 % 1003,0 hPa 0,0 l/m 0 min 0 min 0,0 UV-I 32 W/m 30,9 km/h (5 Bft)
10.05.2014 19:46 13,7 C 11,7 C 92 % 1003,1 hPa 0,0 l/m 0 min 2 min 0,0 UV-I 46 W/m 23,2 km/h (4 Bft)
10.05.2014 19:48 13,6 C 11,7 C 92 % 1002,9 hPa 0,0 l/m 0 min 2 min 0,0 UV-I 49 W/m 12,9 km/h (3 Bft)
10.05.2014 19:50 13,6 C 11,7 C 92 % 1002,9 hPa 0,0 l/m 0 min 2 min 0,0 UV-I 42 W/m 2,6 km/h (1 Bft)
10.05.2014 19:52 13,5 C 11,7 C 92 % 1002,8 hPa 0,0 l/m 0 min 2 min 0,0 UV-I 44 W/m 10,3 km/h (2 Bft)
10.05.2014 19:54 13,4 C 11,7 C 93 % 1002,9 hPa 0,0 l/m 0 min 2 min 0,0 UV-I 51 W/m 20,6 km/h (4 Bft)
10.05.2014 19:56 13,4 C 11,7 C 93 % 1002,9 hPa 0,0 l/m 0 min 2 min 0,0 UV-I 51 W/m 15,4 km/h (3 Bft)
10.05.2014 19:58 13,3 C 11,7 C 93 % 1002,9 hPa 0,0 l/m 0 min 0 min 0,0 UV-I 51 W/m 10,3 km/h (2 Bft)
10.05.2014 20:00 13,3 C 11,7 C 94 % 1003,0 hPa 0,0 l/m 0 min 0 min 0,0 UV-I 54 W/m 12,9 km/h (3 Bft)
10.05.2014 20:02 13,3 C 11,7 C 94 % 1003,1 hPa 0,0 l/m 0 min 0 min 0,0 UV-I 63 W/m 15,4 km/h (3 Bft)
10.05.2014 20:05 13,3 C 11,7 C 94 % 1003,3 hPa 0,0 l/m 0 min 2 min 0,0 UV-I 58 W/m 23,2 km/h (4 Bft)
10.05.2014 20:06 13,3 C 11,7 C 94 % 1003,3 hPa 0,0 l/m 0 min 1 min 0,0 UV-I 58 W/m 25,7 km/h (4 Bft)
10.05.2014 20:08 13,3 C 11,7 C 94 % 1003,1 hPa 0,0 l/m 0 min 2 min 0,0 UV-I 58 W/m 12,9 km/h (3 Bft)
10.05.2014 20:10 13,3 C 11,7 C 94 % 1003,1 hPa 0,0 l/m 0 min 2 min 0,0 UV-I 56 W/m 12,9 km/h (3 Bft)
10.05.2014 20:12 13,3 C 11,7 C 94 % 1003,3 hPa 0,0 l/m 0 min 0 min 0,0 UV-I 54 W/m 28,3 km/h (4 Bft)
10.05.2014 20:14 13,3 C 11,7 C 94 % 1003,3 hPa 0,0 l/m 0 min 2 min 0,0 UV-I 51 W/m 12,9 km/h (3 Bft)
10.05.2014 20:16 13,3 C 11,7 C 94 % 1003,3 hPa 0,0 l/m 0 min 0 min 0,0 UV-I 58 W/m 10,3 km/h (2 Bft)
10.05.2014 20:18 13,3 C 11,7 C 94 % 1003,1 hPa 0,0 l/m 0 min 0 min 0,0 UV-I 56 W/m 18,0 km/h (3 Bft)
10.05.2014 20:20 13,3 C 11,7 C 94 % 1003,0 hPa 0,0 l/m 0 min 0 min 0,0 UV-I 53 W/m 15,4 km/h (3 Bft)
10.05.2014 20:22 13,3 C 11,7 C 94 % 1003,1 hPa 0,0 l/m 0 min 0 min 0,0 UV-I 46 W/m 7,7 km/h (2 Bft)
10.05.2014 20:24 13,3 C 11,7 C 94 % 1003,0 hPa 0,0 l/m 0 min 0 min 0,0 UV-I 42 W/m 15,4 km/h (3 Bft)
10.05.2014 20:26 13,3 C 11,7 C 94 % 1002,9 hPa 0,0 l/m 0 min 0 min 0,0 UV-I 47 W/m 10,3 km/h (2 Bft)
10.05.2014 20:28 13,3 C 11,7 C 94 % 1002,9 hPa 0,0 l/m 0 min 2 min 0,0 UV-I 47 W/m 5,1 km/h (1 Bft)
10.05.2014 20:30 13,3 C 11,1 C 93 % 1002,8 hPa 0,0 l/m 0 min 0 min 0,0 UV-I 42 W/m 18,0 km/h (3 Bft)
10.05.2014 20:32 13,3 C 11,1 C 93 % 1002,9 hPa 0,0 l/m 0 min 0 min 0,0 UV-I 26 W/m 15,4 km/h (3 Bft)
10.05.2014 20:34 13,3 C 11,1 C 93 % 1003,0 hPa 0,0 l/m 0 min 0 min 0,0 UV-I 23 W/m 18,0 km/h (3 Bft)
10.05.2014 20:36 13,2 C 11,1 C 93 % 1003,1 hPa 0,0 l/m 0 min 0 min 0,0 UV-I 23 W/m 12,9 km/h (3 Bft)
10.05.2014 20:38 13,2 C 11,1 C 92 % 1003,1 hPa 0,0 l/m 0 min 0 min 0,0 UV-I 23 W/m 18,0 km/h (3 Bft)
10.05.2014 20:40 13,2 C 11,1 C 92 % 1002,9 hPa 0,0 l/m 0 min 0 min 0,0 UV-I 26 W/m 23,2 km/h (4 Bft)
10.05.2014 20:42 13,2 C 11,1 C 92 % 1003,1 hPa 0,0 l/m 0 min 0 min 0,0 UV-I 26 W/m 12,9 km/h (3 Bft)
10.05.2014 20:44 13,2 C 11,1 C 92 % 1003,2 hPa 0,0 l/m 0 min 0 min 0,0 UV-I 19 W/m 7,7 km/h (2 Bft)
10.05.2014 20:46 13,2 C 11,1 C 91 % 1003,3 hPa 0,0 l/m 0 min 0 min 0,0 UV-I 19 W/m 7,7 km/h (2 Bft)
10.05.2014 20:48 13,2 C 11,1 C 91 % 1003,3 hPa 0,0 l/m 0 min 0 min 0,0 UV-I 18 W/m 15,4 km/h (3 Bft)
10.05.2014 20:50 13,1 C 11,1 C 91 % 1003,2 hPa 0,0 l/m 2 min 0 min 0,0 UV-I 21 W/m 12,9 km/h (3 Bft)
10.05.2014 20:52 13,1 C 11,1 C 92 % 1003,3 hPa 0,0 l/m 2 min 0 min 0,0 UV-I 26 W/m 12,9 km/h (3 Bft)
10.05.2014 20:54 13,0 C 11,1 C 92 % 1003,2 hPa 0,0 l/m 2 min 0 min 0,0 UV-I 32 W/m 7,7 km/h (2 Bft)
10.05.2014 20:56 13,0 C 11,1 C 92 % 1003,0 hPa 0,0 l/m 2 min 0 min 0,0 UV-I 23 W/m 7,7 km/h (2 Bft)
10.05.2014 20:58 12,9 C 10,6 C 92 % 1003,0 hPa 0,0 l/m 0 min 0 min 0,0 UV-I 18 W/m 10,3 km/h (2 Bft)
10.05.2014 21:00 12,9 C 10,6 C 92 % 1003,2 hPa 0,0 l/m 0 min 0 min 0,0 UV-I 16 W/m 5,1 km/h (1 Bft)
10.05.2014 21:02 12,9 C 10,6 C 92 % 1003,2 hPa 0,0 l/m 0 min 0 min 0,0 UV-I 12 W/m 10,3 km/h (2 Bft)
10.05.2014 21:05 12,8 C 10,6 C 92 % 1003,2 hPa 0,0 l/m 0 min 0 min 0,0 UV-I 9 W/m 15,4 km/h (3 Bft)
10.05.2014 21:06 12,8 C 10,6 C 92 % 1003,2 hPa 0,0 l/m 0 min 0 min 0,0 UV-I 9 W/m 10,3 km/h (2 Bft)
10.05.2014 21:08 12,8 C 10,6 C 91 % 1003,2 hPa 0,0 l/m 0 min 0 min 0,0 UV-I 7 W/m 18,0 km/h (3 Bft)
10.05.2014 21:10 12,7 C 10,6 C 91 % 1003,2 hPa 0,0 l/m 0 min 0 min 0,0 UV-I 5 W/m 7,7 km/h (2 Bft)
10.05.2014 21:12 12,7 C 10,6 C 91 % 1003,2 hPa 0,0 l/m 0 min 0 min 0,0 UV-I 5 W/m 7,7 km/h (2 Bft)
10.05.2014 21:14 12,7 C 10,6 C 91 % 1003,2 hPa 0,0 l/m 0 min 0 min 0,0 UV-I 0 W/m 7,7 km/h (2 Bft)
10.05.2014 21:16 12,6 C 10,0 C 91 % 1003,3 hPa 0,0 l/m 0 min 0 min 0,0 UV-I 0 W/m 15,4 km/h (3 Bft)
10.05.2014 21:18 12,6 C 10,0 C 91 % 1003,2 hPa 0,0 l/m 0 min 0 min 0,0 UV-I 0 W/m 18,0 km/h (3 Bft)
10.05.2014 21:20 12,6 C 10,0 C 90 % 1003,1 hPa 0,0 l/m 0 min 0 min 0,0 UV-I 0 W/m 5,1 km/h (1 Bft)
10.05.2014 21:22 12,6 C 10,0 C 90 % 1003,1 hPa 0,0 l/m 0 min 0 min 0,0 UV-I 0 W/m 10,3 km/h (2 Bft)
10.05.2014 21:24 12,5 C 10,0 C 90 % 1003,2 hPa 0,0 l/m 0 min 0 min 0,0 UV-I 0 W/m 15,4 km/h (3 Bft)
10.05.2014 21:26 12,4 C 10,0 C 91 % 1003,2 hPa 0,0 l/m 0 min 0 min 0,0 UV-I 0 W/m 7,7 km/h (2 Bft)
10.05.2014 21:28 12,4 C 10,0 C 91 % 1003,2 hPa 0,0 l/m 0 min 0 min 0,0 UV-I 0 W/m 12,9 km/h (3 Bft)
10.05.2014 21:30 12,4 C 10,0 C 91 % 1003,1 hPa 0,0 l/m 0 min 0 min 0,0 UV-I 0 W/m 20,6 km/h (4 Bft)
10.05.2014 21:32 12,3 C 10,0 C 91 % 1003,2 hPa 0,0 l/m 0 min 0 min 0,0 UV-I 0 W/m 18,0 km/h (3 Bft)
10.05.2014 21:34 12,3 C 10,0 C 90 % 1003,1 hPa 0,0 l/m 0 min 0 min 0,0 UV-I 0 W/m 20,6 km/h (4 Bft)
10.05.2014 21:36 12,3 C 10,0 C 90 % 1003,1 hPa 0,0 l/m 0 min 0 min 0,0 UV-I 0 W/m 12,9 km/h (3 Bft)
10.05.2014 21:38 12,3 C 10,0 C 90 % 1003,1 hPa 0,0 l/m 0 min 0 min 0,0 UV-I 0 W/m 10,3 km/h (2 Bft)
10.05.2014 21:40 12,3 C 10,0 C 90 % 1003,2 hPa 0,0 l/m 0 min 0 min 0,0 UV-I 0 W/m 12,9 km/h (3 Bft)
10.05.2014 21:42 12,3 C 10,0 C 90 % 1003,3 hPa 0,0 l/m 0 min 0 min 0,0 UV-I 0 W/m 5,1 km/h (1 Bft)
10.05.2014 21:44 12,3 C 10,0 C 90 % 1003,3 hPa 0,0 l/m 0 min 0 min 0,0 UV-I 0 W/m 12,9 km/h (3 Bft)
10.05.2014 21:46 12,3 C 10,0 C 90 % 1003,2 hPa 0,0 l/m 0 min 0 min 0,0 UV-I 0 W/m 2,6 km/h (1 Bft)
10.05.2014 21:48 12,3 C 10,0 C 90 % 1003,1 hPa 0,0 l/m 0 min 0 min 0,0 UV-I 0 W/m 18,0 km/h (3 Bft)
10.05.2014 21:50 12,3 C 10,0 C 90 % 1003,1 hPa 0,0 l/m 0 min 0 min 0,0 UV-I 0 W/m 15,4 km/h (3 Bft)
10.05.2014 21:52 12,3 C 10,0 C 90 % 1003,1 hPa 0,0 l/m 0 min 0 min 0,0 UV-I 0 W/m 12,9 km/h (3 Bft)
10.05.2014 21:54 12,3 C 10,0 C 91 % 1003,1 hPa 0,0 l/m 0 min 0 min 0,0 UV-I 0 W/m 2,6 km/h (1 Bft)
10.05.2014 21:56 12,3 C 10,0 C 91 % 1003,0 hPa 0,0 l/m 0 min 0 min 0,0 UV-I 0 W/m 7,7 km/h (2 Bft)
10.05.2014 21:58 12,3 C 10,0 C 91 % 1002,9 hPa 0,0 l/m 0 min 2 min 0,0 UV-I 0 W/m 12,9 km/h (3 Bft)
10.05.2014 22:00 12,3 C 10,0 C 91 % 1003,1 hPa 0,0 l/m 0 min 0 min 0,0 UV-I 0 W/m 20,6 km/h (4 Bft)
10.05.2014 22:02 12,3 C 10,0 C 90 % 1003,0 hPa 0,0 l/m 0 min 0 min 0,0 UV-I 0 W/m 15,4 km/h (3 Bft)
10.05.2014 22:05 12,3 C 10,0 C 90 % 1002,9 hPa 0,0 l/m 0 min 0 min 0,0 UV-I 0 W/m 28,3 km/h (4 Bft)
10.05.2014 22:06 12,2 C 10,0 C 90 % 1002,9 hPa 0,0 l/m 0 min 0 min 0,0 UV-I 0 W/m 7,7 km/h (2 Bft)
10.05.2014 22:08 12,3 C 10,0 C 89 % 1003,0 hPa 0,0 l/m 0 min 0 min 0,0 UV-I 0 W/m 15,4 km/h (3 Bft)
10.05.2014 22:10 12,3 C 10,0 C 89 % 1003,1 hPa 0,0 l/m 0 min 0 min 0,0 UV-I 0 W/m 15,4 km/h (3 Bft)
10.05.2014 22:12 12,3 C 9,4 C 88 % 1003,1 hPa 0,0 l/m 0 min 0 min 0,0 UV-I 0 W/m 28,3 km/h (4 Bft)
10.05.2014 22:14 12,3 C 9,4 C 88 % 1003,1 hPa 0,0 l/m 0 min 0 min 0,0 UV-I 0 W/m 18,0 km/h (3 Bft)
10.05.2014 22:16 12,3 C 9,4 C 87 % 1003,1 hPa 0,0 l/m 0 min 0 min 0,0 UV-I 0 W/m 23,2 km/h (4 Bft)
10.05.2014 22:18 12,2 C 9,4 C 87 % 1003,2 hPa 0,0 l/m 0 min 0 min 0,0 UV-I 0 W/m 7,7 km/h (2 Bft)
10.05.2014 22:20 12,2 C 9,4 C 86 % 1003,2 hPa 0,0 l/m 0 min 0 min 0,0 UV-I 0 W/m 20,6 km/h (4 Bft)
10.05.2014 22:22 12,2 C 9,4 C 86 % 1003,3 hPa 0,0 l/m 0 min 0 min 0,0 UV-I 0 W/m 20,6 km/h (4 Bft)
10.05.2014 22:24 12,2 C 9,4 C 85 % 1003,2 hPa 0,0 l/m 0 min 0 min 0,0 UV-I 0 W/m 12,9 km/h (3 Bft)
10.05.2014 22:26 12,2 C 9,4 C 85 % 1003,3 hPa 0,0 l/m 0 min 0 min 0,0 UV-I 0 W/m 18,0 km/h (3 Bft)
10.05.2014 22:28 12,2 C 9,4 C 85 % 1003,3 hPa 0,0 l/m 0 min 0 min 0,0 UV-I 0 W/m 23,2 km/h (4 Bft)
10.05.2014 22:30 12,2 C 9,4 C 84 % 1003,2 hPa 0,0 l/m 0 min 0 min 0,0 UV-I 0 W/m 23,2 km/h (4 Bft)
10.05.2014 22:32 12,2 C 9,4 C 84 % 1003,2 hPa 0,0 l/m 0 min 0 min 0,0 UV-I 0 W/m 18,0 km/h (3 Bft)
10.05.2014 22:34 12,2 C 9,4 C 84 % 1003,1 hPa 0,0 l/m 0 min 0 min 0,0 UV-I 0 W/m 10,3 km/h (2 Bft)
10.05.2014 22:36 12,2 C 9,4 C 84 % 1003,2 hPa 0,0 l/m 0 min 0 min 0,0 UV-I 0 W/m 10,3 km/h (2 Bft)
10.05.2014 22:38 12,1 C 9,4 C 84 % 1003,1 hPa 0,0 l/m 0 min 0 min 0,0 UV-I 0 W/m 20,6 km/h (4 Bft)
10.05.2014 22:40 12,1 C 9,4 C 84 % 1003,3 hPa 0,0 l/m 0 min 0 min 0,0 UV-I 0 W/m 15,4 km/h (3 Bft)
10.05.2014 22:42 12,0 C 9,4 C 84 % 1003,3 hPa 0,0 l/m 0 min 0 min 0,0 UV-I 0 W/m 28,3 km/h (4 Bft)
10.05.2014 22:44 12,0 C 8,9 C 84 % 1003,3 hPa 0,0 l/m 0 min 0 min 0,0 UV-I 0 W/m 28,3 km/h (4 Bft)
10.05.2014 22:46 11,9 C 8,9 C 83 % 1003,3 hPa 0,0 l/m 0 min 0 min 0,0 UV-I 0 W/m 20,6 km/h (4 Bft)
10.05.2014 22:48 11,9 C 8,9 C 83 % 1003,2 hPa 0,0 l/m 0 min 0 min 0,0 UV-I 0 W/m 20,6 km/h (4 Bft)
10.05.2014 22:50 11,9 C 8,9 C 82 % 1003,3 hPa 0,0 l/m 0 min 0 min 0,0 UV-I 0 W/m 7,7 km/h (2 Bft)
10.05.2014 22:52 11,9 C 8,9 C 82 % 1003,2 hPa 0,0 l/m 0 min 0 min 0,0 UV-I 0 W/m 10,3 km/h (2 Bft)
10.05.2014 22:54 11,9 C 8,9 C 83 % 1003,3 hPa 0,0 l/m 0 min 0 min 0,0 UV-I 0 W/m 18,0 km/h (3 Bft)
10.05.2014 22:56 11,9 C 9,4 C 83 % 1003,3 hPa 0,0 l/m 0 min 0 min 0,0 UV-I 0 W/m 25,7 km/h (4 Bft)
10.05.2014 22:58 11,9 C 9,4 C 83 % 1003,2 hPa 0,0 l/m 0 min 0 min 0,0 UV-I 0 W/m 18,0 km/h (3 Bft)
10.05.2014 23:00 11,9 C 8,9 C 83 % 1003,3 hPa 0,0 l/m 0 min 0 min 0,0 UV-I 0 W/m 15,4 km/h (3 Bft)
10.05.2014 23:02 11,8 C 8,9 C 83 % 1003,3 hPa 0,0 l/m 0 min 0 min 0,0 UV-I 0 W/m 10,3 km/h (2 Bft)
10.05.2014 23:05 11,8 C 8,9 C 83 % 1003,3 hPa 0,0 l/m 0 min 0 min 0,0 UV-I 0 W/m 23,2 km/h (4 Bft)
10.05.2014 23:06 11,8 C 8,9 C 82 % 1003,3 hPa 0,0 l/m 0 min 0 min 0,0 UV-I 0 W/m 2,6 km/h (1 Bft)
10.05.2014 23:08 11,8 C 8,9 C 82 % 1003,3 hPa 0,0 l/m 0 min 0 min 0,0 UV-I 0 W/m 12,9 km/h (3 Bft)
10.05.2014 23:10 11,8 C 8,9 C 82 % 1003,3 hPa 0,0 l/m 0 min 0 min 0,0 UV-I 0 W/m 23,2 km/h (4 Bft)
10.05.2014 23:12 11,8 C 8,9 C 82 % 1003,3 hPa 0,0 l/m 0 min 0 min 0,0 UV-I 0 W/m 10,3 km/h (2 Bft)
10.05.2014 23:14 11,8 C 8,9 C 82 % 1003,3 hPa 0,0 l/m 0 min 0 min 0,0 UV-I 0 W/m 28,3 km/h (4 Bft)
10.05.2014 23:16 11,7 C 8,9 C 82 % 1003,3 hPa 0,0 l/m 0 min 0 min 0,0 UV-I 0 W/m 15,4 km/h (3 Bft)
10.05.2014 23:18 11,7 C 8,9 C 82 % 1003,3 hPa 0,0 l/m 0 min 0 min 0,0 UV-I 0 W/m 12,9 km/h (3 Bft)
10.05.2014 23:20 11,7 C 8,9 C 82 % 1003,3 hPa 0,0 l/m 0 min 0 min 0,0 UV-I 0 W/m 7,7 km/h (2 Bft)
10.05.2014 23:22 11,6 C 8,9 C 82 % 1003,3 hPa 0,0 l/m 0 min 0 min 0,0 UV-I 0 W/m 18,0 km/h (3 Bft)
10.05.2014 23:24 11,6 C 8,9 C 82 % 1003,3 hPa 0,0 l/m 0 min 0 min 0,0 UV-I 0 W/m 18,0 km/h (3 Bft)
10.05.2014 23:26 11,5 C 8,9 C 82 % 1003,3 hPa 0,0 l/m 0 min 0 min 0,0 UV-I 0 W/m 15,4 km/h (3 Bft)
10.05.2014 23:28 11,4 C 8,9 C 82 % 1003,3 hPa 0,0 l/m 0 min 0 min 0,0 UV-I 0 W/m 12,9 km/h (3 Bft)
10.05.2014 23:30 11,3 C 8,9 C 82 % 1003,3 hPa 0,0 l/m 0 min 0 min 0,0 UV-I 0 W/m 18,0 km/h (3 Bft)
10.05.2014 23:32 11,3 C 8,9 C 82 % 1003,3 hPa 0,0 l/m 0 min 0 min 0,0 UV-I 0 W/m 18,0 km/h (3 Bft)
10.05.2014 23:34 11,3 C 8,9 C 81 % 1003,3 hPa 0,0 l/m 0 min 0 min 0,0 UV-I 0 W/m 23,2 km/h (4 Bft)
10.05.2014 23:36 11,2 C 8,3 C 81 % 1003,3 hPa 0,0 l/m 0 min 0 min 0,0 UV-I 0 W/m 10,3 km/h (2 Bft)
10.05.2014 23:38 11,2 C 8,3 C 81 % 1003,3 hPa 0,0 l/m 0 min 0 min 0,0 UV-I 0 W/m 15,4 km/h (3 Bft)
10.05.2014 23:40 11,1 C 8,9 C 81 % 1003,3 hPa 0,0 l/m 0 min 0 min 0,0 UV-I 0 W/m 20,6 km/h (4 Bft)
10.05.2014 23:42 11,1 C 8,9 C 81 % 1003,3 hPa 0,0 l/m 0 min 0 min 0,0 UV-I 0 W/m 20,6 km/h (4 Bft)
10.05.2014 23:44 11,1 C 8,9 C 81 % 1003,3 hPa 0,0 l/m 0 min 0 min 0,0 UV-I 0 W/m 7,7 km/h (2 Bft)
10.05.2014 23:46 11,0 C 8,9 C 81 % 1003,3 hPa 0,0 l/m 0 min 0 min 0,0 UV-I 0 W/m 18,0 km/h (3 Bft)
10.05.2014 23:48 11,0 C 8,9 C 80 % 1003,3 hPa 0,0 l/m 0 min 0 min 0,0 UV-I 0 W/m 15,4 km/h (3 Bft)
10.05.2014 23:50 10,9 C 8,9 C 81 % 1003,3 hPa 0,0 l/m 0 min 0 min 0,0 UV-I 0 W/m 23,2 km/h (4 Bft)
10.05.2014 23:52 10,9 C 8,9 C 80 % 1003,3 hPa 0,0 l/m 0 min 0 min 0,0 UV-I 0 W/m 18,0 km/h (3 Bft)
10.05.2014 23:54 10,9 C 8,9 C 81 % 1003,3 hPa 0,0 l/m 0 min 0 min 0,0 UV-I 0 W/m 18,0 km/h (3 Bft)
10.05.2014 23:56 10,9 C 8,9 C 80 % 1003,3 hPa 0,0 l/m 0 min 0 min 0,0 UV-I 0 W/m 20,6 km/h (4 Bft)
10.05.2014 23:58 10,9 C 8,9 C 80 % 1003,2 hPa 0,0 l/m 0 min 0 min 0,0 UV-I 0 W/m 18,0 km/h (3 Bft)
_ Min-Zeit 03:54 01:44 23:48 19:28 - - - - - 00:18
Minimum _ 7,9 C 6,7 C 80 % 1002,8 hPa - - - - - 0,0 km/h (0 Bft)
_ Max-Zeit 19:34 14:58 13:16 00:05 00:05 08:05 00:00 14:58 14:58 16:28
Maximum _ 13,8 C 12,2 C 98 % 1014,7 hPa 0,2 l/m 2 min 2 min 1,4 UV-I 334 W/m 41,2 km/h
SO (6 Bft)
Durchschnitt _ 10,9 C 9,4 C 93 % 1009,2 hPa #9,2 l/m #22 min. #7:04 h 0,7 UV-I 98 W/m 10,4 km/h (2 Bft)
© 2014 W. Hausmann